THA531 VTBS-LIMC
Flight info
| Callsign | THA531 |
|---|---|
| Flight time | N/A |
| Altitude | 34000 |
| Route | TARED1J TARED P646 PUPAM/N0502F360 P646 BBN R460 LKN M890 SULOM L509 TAPIS M875 AMDAR/K0915F360 T186 TRZ/K0906F380 T186 INDUD Z777 MANAT/N0487F380 R226 AKRAM A477 BABUM A909 RODAR N644 TETRO M10 SARPI UM10 GOKPA/N0491F400 UM10 TIVUG UL852 NEGEM Q8 DOLAP DCT VEBAR DCT ETOBI DCT PEVAL DCT VIC/N0484F410 DCT ADOSA DCT IDREK DCT ELTAR DCT NOBMI DCT NEVNI DCT OSKOR DCT LEGLO DCT PEXUG |
| Aircraft | A359/H-SDE2E3GHIJ3J4J5LM1ORWXY/LB1D1 |
Departure
| Time | 2026-05-04 20:02 |
|---|---|
| Airport | Suvarnabhumi Airport (VTBS) |
Arrival
| Time | N/A |
|---|---|
| Airport | Milan Malpensa International Airport (LIMC) |
| Time | Latitude | Longitude | Altitude | Speed | Heading |
|---|---|---|---|---|---|
| 2026-05-04 19:08 | 13.69275 | 100.75551 | 19 ft | 0 kts | 284° |
| 2026-05-04 19:57 | 13.69273 | 100.75558 | 19 ft | 3 kts | 284° |
| 2026-05-04 19:57 | 13.69268 | 100.75575 | 20 ft | 3 kts | 284° |
| 2026-05-04 19:58 | 13.69264 | 100.75594 | 23 ft | 3 kts | 270° |
| 2026-05-04 19:58 | 13.69267 | 100.75612 | 23 ft | 2 kts | 245° |
| 2026-05-04 19:58 | 13.69277 | 100.75629 | 22 ft | 3 kts | 213° |
| 2026-05-04 19:58 | 13.69283 | 100.75633 | 23 ft | 0 kts | 200° |
| 2026-05-04 19:59 | 13.69264 | 100.75631 | 23 ft | 6 kts | 182° |
| 2026-05-04 19:59 | 13.69199 | 100.75633 | 23 ft | 12 kts | 158° |
| 2026-05-04 20:00 | 13.69143 | 100.75716 | 21 ft | 17 kts | 107° |
| 2026-05-04 20:00 | 13.69113 | 100.75846 | 20 ft | 18 kts | 95° |
| 2026-05-04 20:00 | 13.69183 | 100.75922 | 22 ft | 14 kts | 40° |
| 2026-05-04 20:00 | 13.69194 | 100.76012 | 18 ft | 13 kts | 108° |
| 2026-05-04 20:01 | 13.69134 | 100.76081 | 20 ft | 13 kts | 163° |
| 2026-05-04 20:01 | 13.69080 | 100.76079 | 20 ft | 0 kts | 192° |
| 2026-05-04 20:01 | 13.68950 | 100.76047 | 24 ft | 50 kts | 194° |
| 2026-05-04 20:02 | 13.68398 | 100.75901 | 23 ft | 112 kts | 194° |
| 2026-05-04 20:02 | 13.67471 | 100.75657 | 21 ft | 164 kts | 194° |
| 2026-05-04 20:02 | 13.66244 | 100.75350 | 279 ft | 187 kts | 192° |
| 2026-05-04 20:02 | 13.65033 | 100.75082 | 1216 ft | 168 kts | 190° |
| 2026-05-04 20:03 | 13.63889 | 100.74975 | 1698 ft | 169 kts | 178° |
| 2026-05-04 20:03 | 13.62695 | 100.75116 | 1880 ft | 179 kts | 169° |
| 2026-05-04 20:03 | 13.61425 | 100.75303 | 2116 ft | 189 kts | 175° |
| 2026-05-04 20:03 | 13.60069 | 100.75421 | 2317 ft | 201 kts | 174° |
| 2026-05-04 20:04 | 13.58672 | 100.75742 | 2535 ft | 213 kts | 164° |
| 2026-05-04 20:04 | 13.57193 | 100.76181 | 2722 ft | 228 kts | 164° |
| 2026-05-04 20:04 | 13.55624 | 100.76647 | 2917 ft | 244 kts | 164° |
| 2026-05-04 20:04 | 13.53936 | 100.77140 | 3184 ft | 256 kts | 164° |
| 2026-05-04 20:05 | 13.52218 | 100.77637 | 3616 ft | 261 kts | 164° |
| 2026-05-04 20:05 | 13.50461 | 100.78142 | 4084 ft | 264 kts | 164° |
| 2026-05-04 20:05 | 13.48656 | 100.78553 | 4563 ft | 268 kts | 174° |
| 2026-05-04 20:05 | 13.46800 | 100.78393 | 5051 ft | 270 kts | 191° |
| 2026-05-04 20:06 | 13.44994 | 100.77801 | 5498 ft | 275 kts | 206° |
| 2026-05-04 20:06 | 13.43528 | 100.76551 | 5933 ft | 280 kts | 233° |
| 2026-05-04 20:06 | 13.42789 | 100.74698 | 6377 ft | 285 kts | 262° |
| 2026-05-04 20:06 | 13.42939 | 100.72669 | 6821 ft | 287 kts | 283° |
| 2026-05-04 20:07 | 13.43440 | 100.70673 | 7288 ft | 290 kts | 285° |
| 2026-05-04 20:07 | 13.43975 | 100.68662 | 7773 ft | 292 kts | 285° |
| 2026-05-04 20:07 | 13.44503 | 100.66636 | 8274 ft | 294 kts | 284° |
| 2026-05-04 20:07 | 13.45020 | 100.64614 | 8774 ft | 297 kts | 284° |
| 2026-05-04 20:08 | 13.45542 | 100.62551 | 9260 ft | 299 kts | 284° |
| 2026-05-04 20:08 | 13.46094 | 100.60475 | 9772 ft | 302 kts | 288° |
| 2026-05-04 20:08 | 13.47111 | 100.58590 | 10196 ft | 304 kts | 313° |
| 2026-05-04 20:08 | 13.48824 | 100.57352 | 10625 ft | 304 kts | 341° |
| 2026-05-04 20:09 | 13.50863 | 100.56992 | 11078 ft | 302 kts | 1° |
| 2026-05-04 20:09 | 13.52973 | 100.57029 | 11543 ft | 304 kts | 3° |
| 2026-05-04 20:09 | 13.55100 | 100.57111 | 12032 ft | 306 kts | 3° |
| 2026-05-04 20:09 | 13.57243 | 100.57192 | 12495 ft | 308 kts | 3° |
| 2026-05-04 20:10 | 13.59397 | 100.57261 | 12966 ft | 311 kts | 2° |
| 2026-05-04 20:10 | 13.61567 | 100.57322 | 13433 ft | 313 kts | 2° |
| 2026-05-04 20:10 | 13.63748 | 100.57378 | 13849 ft | 316 kts | 2° |
| 2026-05-04 20:10 | 13.65935 | 100.57438 | 14232 ft | 318 kts | 2° |
| 2026-05-04 20:11 | 13.68153 | 100.57502 | 14638 ft | 320 kts | 2° |
| 2026-05-04 20:11 | 13.70382 | 100.57562 | 15058 ft | 321 kts | 2° |
| 2026-05-04 20:11 | 13.72627 | 100.57621 | 15470 ft | 323 kts | 2° |
| 2026-05-04 20:11 | 13.74882 | 100.57679 | 15876 ft | 325 kts | 2° |
| 2026-05-04 20:12 | 13.77150 | 100.57547 | 16262 ft | 328 kts | 350° |
| 2026-05-04 20:12 | 13.79322 | 100.56811 | 16657 ft | 330 kts | 333° |
| 2026-05-04 20:12 | 13.81320 | 100.55641 | 17077 ft | 331 kts | 328° |
| 2026-05-04 20:12 | 13.83294 | 100.54387 | 17471 ft | 333 kts | 328° |
| 2026-05-04 20:13 | 13.85275 | 100.53125 | 17860 ft | 335 kts | 328° |
| 2026-05-04 20:13 | 13.87268 | 100.51861 | 18239 ft | 337 kts | 328° |
| 2026-05-04 20:13 | 13.89245 | 100.50613 | 18582 ft | 338 kts | 328° |
| 2026-05-04 20:13 | 13.91236 | 100.49251 | 18914 ft | 340 kts | 321° |
| 2026-05-04 20:14 | 13.92909 | 100.47570 | 19231 ft | 341 kts | 308° |
| 2026-05-04 20:14 | 13.94149 | 100.45486 | 19548 ft | 342 kts | 293° |
| 2026-05-04 20:14 | 13.94850 | 100.43138 | 19871 ft | 343 kts | 280° |
| 2026-05-04 20:14 | 13.95112 | 100.41527 | 20104 ft | 344 kts | 278° |
| 2026-05-04 20:15 | 13.95554 | 100.38277 | 20523 ft | 346 kts | 278° |
| 2026-05-04 20:15 | 13.95887 | 100.35819 | 20854 ft | 348 kts | 278° |
| 2026-05-04 20:15 | 13.96226 | 100.33351 | 21190 ft | 349 kts | 278° |
| 2026-05-04 20:15 | 13.96455 | 100.31701 | 21413 ft | 350 kts | 278° |
| 2026-05-04 20:16 | 13.96917 | 100.28396 | 21839 ft | 352 kts | 278° |
| 2026-05-04 20:16 | 13.97343 | 100.25914 | 22145 ft | 353 kts | 284° |
| 2026-05-04 20:16 | 13.97828 | 100.24279 | 22356 ft | 354 kts | 291° |
| 2026-05-04 20:16 | 13.98920 | 100.22001 | 22666 ft | 356 kts | 301° |
| 2026-05-04 20:17 | 14.00269 | 100.19854 | 22992 ft | 358 kts | 303° |
| 2026-05-04 20:17 | 14.01662 | 100.17727 | 23322 ft | 358 kts | 303° |
| 2026-05-04 20:17 | 14.03058 | 100.15594 | 23628 ft | 360 kts | 303° |
| 2026-05-04 20:17 | 14.04440 | 100.13476 | 23881 ft | 361 kts | 303° |
| 2026-05-04 20:18 | 14.05845 | 100.11317 | 24141 ft | 363 kts | 303° |
| 2026-05-04 20:18 | 14.07250 | 100.09154 | 24403 ft | 364 kts | 303° |
| 2026-05-04 20:18 | 14.08659 | 100.06982 | 24682 ft | 365 kts | 303° |
| 2026-05-04 20:18 | 14.10072 | 100.04803 | 24934 ft | 366 kts | 303° |
| 2026-05-04 20:19 | 14.11491 | 100.02614 | 25189 ft | 368 kts | 303° |
| 2026-05-04 20:19 | 14.12915 | 100.00417 | 25458 ft | 369 kts | 303° |
| 2026-05-04 20:19 | 14.14340 | 99.98216 | 25712 ft | 370 kts | 303° |
| 2026-05-04 20:19 | 14.15771 | 99.96006 | 25956 ft | 371 kts | 303° |
| 2026-05-04 20:20 | 14.17212 | 99.93780 | 26204 ft | 372 kts | 303° |
| 2026-05-04 20:20 | 14.18630 | 99.91591 | 26438 ft | 374 kts | 303° |
| 2026-05-04 20:20 | 14.20083 | 99.89352 | 26684 ft | 375 kts | 303° |
| 2026-05-04 20:20 | 14.21537 | 99.87101 | 26925 ft | 376 kts | 303° |
| 2026-05-04 20:21 | 14.22992 | 99.84849 | 27135 ft | 377 kts | 303° |
| 2026-05-04 20:21 | 14.24450 | 99.82592 | 27369 ft | 379 kts | 303° |
| 2026-05-04 20:21 | 14.27383 | 99.78052 | 27798 ft | 382 kts | 303° |
| 2026-05-04 20:22 | 14.28841 | 99.75794 | 28031 ft | 383 kts | 303° |
| 2026-05-04 20:22 | 14.30318 | 99.73506 | 28253 ft | 384 kts | 303° |
| 2026-05-04 20:22 | 14.31803 | 99.71205 | 28471 ft | 385 kts | 303° |
| 2026-05-04 20:22 | 14.33289 | 99.68903 | 28682 ft | 386 kts | 303° |
| 2026-05-04 20:23 | 14.34777 | 99.66597 | 28882 ft | 387 kts | 303° |
| 2026-05-04 20:23 | 14.36272 | 99.64279 | 29112 ft | 388 kts | 303° |
| 2026-05-04 20:23 | 14.37763 | 99.61967 | 29368 ft | 387 kts | 303° |
| 2026-05-04 20:23 | 14.39256 | 99.59652 | 29584 ft | 387 kts | 303° |
| 2026-05-04 20:24 | 14.40729 | 99.57365 | 29807 ft | 387 kts | 303° |
| 2026-05-04 20:24 | 14.42236 | 99.55026 | 30051 ft | 386 kts | 303° |
| 2026-05-04 20:24 | 14.43678 | 99.52728 | 30252 ft | 386 kts | 300° |
| 2026-05-04 20:24 | 14.44995 | 99.50319 | 30424 ft | 385 kts | 298° |
| 2026-05-04 20:25 | 14.46255 | 99.47883 | 30599 ft | 385 kts | 297° |
| 2026-05-04 20:25 | 14.47491 | 99.45428 | 30773 ft | 385 kts | 297° |
| 2026-05-04 20:25 | 14.49948 | 99.40481 | 30918 ft | 390 kts | 297° |
| 2026-05-04 20:26 | 14.52459 | 99.35465 | 31054 ft | 396 kts | 297° |
| 2026-05-04 20:26 | 14.55023 | 99.30383 | 31186 ft | 402 kts | 297° |
| 2026-05-04 20:27 | 14.57595 | 99.25285 | 31348 ft | 407 kts | 297° |
| 2026-05-04 20:27 | 14.60211 | 99.20094 | 31500 ft | 413 kts | 297° |
| 2026-05-04 20:28 | 14.62878 | 99.14786 | 31657 ft | 419 kts | 297° |
| 2026-05-04 20:28 | 14.65586 | 99.09395 | 31823 ft | 425 kts | 297° |
| 2026-05-04 20:29 | 14.68329 | 99.03941 | 31983 ft | 431 kts | 297° |
| 2026-05-04 20:29 | 14.71112 | 98.98403 | 32130 ft | 437 kts | 297° |
| 2026-05-04 20:30 | 14.73925 | 98.92799 | 32275 ft | 442 kts | 297° |
| 2026-05-04 20:30 | 14.76760 | 98.87143 | 32461 ft | 448 kts | 297° |
| 2026-05-04 20:31 | 14.79643 | 98.81387 | 32550 ft | 455 kts | 297° |
| 2026-05-04 20:31 | 14.82575 | 98.75531 | 32716 ft | 460 kts | 297° |
| 2026-05-04 20:32 | 14.85530 | 98.69624 | 32875 ft | 465 kts | 297° |
| 2026-05-04 20:32 | 14.88502 | 98.63675 | 33036 ft | 471 kts | 297° |
| 2026-05-04 20:33 | 14.91528 | 98.57617 | 33198 ft | 475 kts | 297° |
| 2026-05-04 20:33 | 14.94578 | 98.51505 | 33327 ft | 480 kts | 297° |
| 2026-05-04 20:34 | 14.97652 | 98.45339 | 33470 ft | 485 kts | 297° |
| 2026-05-04 20:34 | 15.00747 | 98.39127 | 33594 ft | 489 kts | 297° |
| 2026-05-04 20:35 | 15.02290 | 98.36027 | 33724 ft | 489 kts | 297° |
| 2026-05-04 20:35 | 15.03860 | 98.32872 | 33854 ft | 489 kts | 297° |
| 2026-05-04 20:35 | 15.06984 | 98.26591 | 33905 ft | 495 kts | 297° |
| 2026-05-04 20:36 | 15.10142 | 98.20236 | 33905 ft | 497 kts | 297° |
| 2026-05-04 20:36 | 15.13269 | 98.13851 | 33895 ft | 497 kts | 296° |
| 2026-05-04 20:37 | 15.16360 | 98.07458 | 33894 ft | 497 kts | 296° |
| 2026-05-04 20:37 | 15.19457 | 98.01055 | 33881 ft | 497 kts | 296° |
| 2026-05-04 20:38 | 15.22541 | 97.94687 | 33886 ft | 497 kts | 296° |
| 2026-05-04 20:38 | 15.25640 | 97.88280 | 33872 ft | 497 kts | 296° |
| 2026-05-04 20:39 | 15.28742 | 97.81882 | 33873 ft | 497 kts | 296° |
| 2026-05-04 20:39 | 15.31845 | 97.75475 | 33871 ft | 497 kts | 296° |
| 2026-05-04 20:40 | 15.34941 | 97.69072 | 33867 ft | 497 kts | 296° |
| 2026-05-04 20:40 | 15.38039 | 97.62656 | 33871 ft | 497 kts | 296° |
| 2026-05-04 20:41 | 15.41133 | 97.56244 | 33862 ft | 497 kts | 296° |
| 2026-05-04 20:41 | 15.44210 | 97.49861 | 33865 ft | 497 kts | 296° |
| 2026-05-04 20:42 | 15.47382 | 97.43493 | 33865 ft | 497 kts | 297° |
| 2026-05-04 20:42 | 15.50645 | 97.37163 | 33865 ft | 497 kts | 298° |
| 2026-05-04 20:43 | 15.53901 | 97.30831 | 33865 ft | 498 kts | 297° |
| 2026-05-04 20:43 | 15.57151 | 97.24461 | 33865 ft | 499 kts | 297° |
| 2026-05-04 20:44 | 15.60389 | 97.18095 | 33864 ft | 499 kts | 297° |
| 2026-05-04 20:44 | 15.63626 | 97.11720 | 33859 ft | 499 kts | 297° |
| 2026-05-04 20:45 | 15.66837 | 97.05394 | 33856 ft | 499 kts | 297° |
| 2026-05-04 20:45 | 15.70067 | 96.99024 | 33857 ft | 499 kts | 297° |
| 2026-05-04 20:46 | 15.73297 | 96.92650 | 33856 ft | 499 kts | 297° |
| 2026-05-04 20:46 | 15.76524 | 96.86276 | 33857 ft | 499 kts | 297° |
| 2026-05-04 20:47 | 15.79755 | 96.79890 | 33856 ft | 498 kts | 297° |
| 2026-05-04 20:47 | 15.82974 | 96.73520 | 33856 ft | 497 kts | 297° |
| 2026-05-04 20:48 | 15.86168 | 96.67194 | 33856 ft | 496 kts | 297° |
| 2026-05-04 20:48 | 15.89375 | 96.60837 | 33857 ft | 497 kts | 297° |
| 2026-05-04 20:49 | 15.92582 | 96.54474 | 33857 ft | 496 kts | 297° |
| 2026-05-04 20:49 | 15.95785 | 96.48113 | 33854 ft | 496 kts | 297° |
| 2026-05-04 20:50 | 15.98977 | 96.41769 | 33854 ft | 495 kts | 297° |
| 2026-05-04 20:50 | 16.02159 | 96.35438 | 33854 ft | 495 kts | 297° |
| 2026-05-04 20:51 | 16.05330 | 96.29124 | 33853 ft | 495 kts | 297° |
| 2026-05-04 20:51 | 16.08522 | 96.22762 | 33851 ft | 494 kts | 297° |
| 2026-05-04 20:52 | 16.11706 | 96.16410 | 33851 ft | 495 kts | 297° |
| 2026-05-04 20:52 | 16.14865 | 96.10103 | 33850 ft | 495 kts | 297° |
| 2026-05-04 20:53 | 16.18051 | 96.03727 | 33851 ft | 495 kts | 297° |
| 2026-05-04 20:53 | 16.21224 | 95.97376 | 33851 ft | 495 kts | 297° |
| 2026-05-04 20:54 | 16.24384 | 95.91058 | 33850 ft | 495 kts | 297° |
| 2026-05-04 20:54 | 16.27557 | 95.84701 | 33856 ft | 495 kts | 297° |
| 2026-05-04 20:55 | 16.30730 | 95.78323 | 33851 ft | 494 kts | 297° |
| 2026-05-04 20:55 | 16.33892 | 95.71980 | 33849 ft | 494 kts | 297° |
| 2026-05-04 20:56 | 16.37042 | 95.65653 | 33851 ft | 494 kts | 297° |
| 2026-05-04 20:56 | 16.40209 | 95.59275 | 33852 ft | 494 kts | 297° |
| 2026-05-04 20:57 | 16.43367 | 95.52927 | 33851 ft | 494 kts | 297° |
| 2026-05-04 20:57 | 16.46519 | 95.46581 | 33852 ft | 494 kts | 297° |
| 2026-05-04 20:58 | 16.49669 | 95.40228 | 33853 ft | 494 kts | 297° |
| 2026-05-04 20:58 | 16.52830 | 95.33845 | 33847 ft | 494 kts | 297° |
| 2026-05-04 20:59 | 16.55959 | 95.27522 | 33849 ft | 493 kts | 297° |
| 2026-05-04 20:59 | 16.59118 | 95.21133 | 33851 ft | 493 kts | 297° |
| 2026-05-04 21:00 | 16.62253 | 95.14786 | 33853 ft | 493 kts | 297° |
| 2026-05-04 21:00 | 16.65389 | 95.08428 | 33849 ft | 492 kts | 296° |
| 2026-05-04 21:01 | 16.68496 | 95.02120 | 33851 ft | 491 kts | 296° |
| 2026-05-04 21:01 | 16.71622 | 94.95778 | 33850 ft | 491 kts | 296° |
| 2026-05-04 21:02 | 16.74214 | 94.90514 | 33851 ft | 491 kts | 296° |
| 2026-05-04 21:02 | 16.77334 | 94.84169 | 33850 ft | 490 kts | 296° |
| 2026-05-04 21:03 | 16.80530 | 94.77879 | 33851 ft | 491 kts | 301° |
| 2026-05-04 21:03 | 16.84600 | 94.72129 | 33854 ft | 491 kts | 307° |
| 2026-05-04 21:04 | 16.88884 | 94.66577 | 33854 ft | 491 kts | 308° |
| 2026-05-04 21:04 | 16.93196 | 94.61065 | 33854 ft | 491 kts | 308° |
| 2026-05-04 21:05 | 16.97522 | 94.55511 | 33858 ft | 491 kts | 308° |
| 2026-05-04 21:05 | 17.01819 | 94.49971 | 33858 ft | 491 kts | 308° |
| 2026-05-04 21:06 | 17.06095 | 94.44445 | 33856 ft | 491 kts | 308° |
| 2026-05-04 21:06 | 17.10392 | 94.38888 | 33856 ft | 491 kts | 308° |
| 2026-05-04 21:07 | 17.14689 | 94.33328 | 33856 ft | 491 kts | 308° |
| 2026-05-04 21:07 | 17.18986 | 94.27763 | 33858 ft | 491 kts | 308° |
| 2026-05-04 21:08 | 17.23266 | 94.22216 | 33859 ft | 491 kts | 308° |
| 2026-05-04 21:08 | 17.27543 | 94.16668 | 33862 ft | 492 kts | 308° |
| 2026-05-04 21:09 | 17.31838 | 94.11091 | 33854 ft | 492 kts | 308° |
| 2026-05-04 21:09 | 17.36160 | 94.05476 | 33866 ft | 492 kts | 308° |
| 2026-05-04 21:10 | 17.40450 | 93.99897 | 33865 ft | 493 kts | 308° |
| 2026-05-04 21:10 | 17.44727 | 93.94331 | 33854 ft | 493 kts | 308° |
| 2026-05-04 21:11 | 17.49035 | 93.88720 | 33854 ft | 493 kts | 308° |
| 2026-05-04 21:11 | 17.53311 | 93.83145 | 33872 ft | 493 kts | 308° |
| 2026-05-04 21:12 | 17.57625 | 93.77518 | 33862 ft | 493 kts | 308° |
| 2026-05-04 21:12 | 17.61914 | 93.71916 | 33862 ft | 493 kts | 308° |
| 2026-05-04 21:13 | 17.66187 | 93.66332 | 33858 ft | 493 kts | 307° |
| 2026-05-04 21:13 | 17.70480 | 93.60716 | 33877 ft | 493 kts | 307° |
| 2026-05-04 21:14 | 17.74783 | 93.55084 | 33862 ft | 493 kts | 307° |
| 2026-05-04 21:14 | 17.79043 | 93.49502 | 33867 ft | 492 kts | 307° |
| 2026-05-04 21:15 | 17.83322 | 93.43890 | 33868 ft | 492 kts | 307° |
| 2026-05-04 21:15 | 17.87597 | 93.38279 | 33866 ft | 492 kts | 307° |
| 2026-05-04 21:16 | 17.91880 | 93.32653 | 33865 ft | 492 kts | 307° |
| 2026-05-04 21:16 | 17.96140 | 93.27052 | 33863 ft | 492 kts | 307° |
| 2026-05-04 21:17 | 18.00435 | 93.21401 | 33866 ft | 492 kts | 307° |
| 2026-05-04 21:17 | 18.04707 | 93.15775 | 33868 ft | 492 kts | 307° |
| 2026-05-04 21:18 | 18.08951 | 93.10180 | 33865 ft | 492 kts | 307° |
| 2026-05-04 21:18 | 18.13215 | 93.04556 | 33870 ft | 491 kts | 307° |
| 2026-05-04 21:19 | 18.17472 | 92.98934 | 33868 ft | 491 kts | 307° |
| 2026-05-04 21:19 | 18.21741 | 92.93291 | 33867 ft | 491 kts | 307° |
| 2026-05-04 21:20 | 18.25976 | 92.87689 | 33872 ft | 491 kts | 307° |
| 2026-05-04 21:20 | 18.30215 | 92.82077 | 33869 ft | 491 kts | 307° |
| 2026-05-04 21:21 | 18.34465 | 92.76446 | 33868 ft | 491 kts | 307° |
| 2026-05-04 21:21 | 18.38739 | 92.70776 | 33870 ft | 491 kts | 307° |
| 2026-05-04 21:22 | 18.42961 | 92.65172 | 33874 ft | 491 kts | 306° |
| 2026-05-04 21:22 | 18.47208 | 92.59520 | 33871 ft | 490 kts | 306° |
| 2026-05-04 21:23 | 18.51434 | 92.53902 | 33870 ft | 489 kts | 306° |
| 2026-05-04 21:23 | 18.55670 | 92.48270 | 33870 ft | 489 kts | 306° |
| 2026-05-04 21:24 | 18.59880 | 92.42664 | 33871 ft | 489 kts | 306° |
| 2026-05-04 21:24 | 18.64102 | 92.37035 | 33869 ft | 489 kts | 306° |
| 2026-05-04 21:25 | 18.68327 | 92.31397 | 33869 ft | 489 kts | 306° |
| 2026-05-04 21:25 | 18.72544 | 92.25763 | 33869 ft | 490 kts | 306° |
| 2026-05-04 21:26 | 18.76761 | 92.20126 | 33870 ft | 490 kts | 306° |
| 2026-05-04 21:26 | 18.80989 | 92.14469 | 33870 ft | 490 kts | 306° |
| 2026-05-04 21:27 | 18.85181 | 92.08854 | 33870 ft | 490 kts | 306° |
| 2026-05-04 21:27 | 18.89412 | 92.03183 | 33871 ft | 490 kts | 306° |
| 2026-05-04 21:28 | 18.93628 | 91.97521 | 33869 ft | 490 kts | 306° |
| 2026-05-04 21:28 | 18.97793 | 91.91830 | 33873 ft | 490 kts | 305° |
| 2026-05-04 21:29 | 19.01922 | 91.86154 | 33873 ft | 491 kts | 305° |
| 2026-05-04 21:29 | 19.06084 | 91.80441 | 33873 ft | 491 kts | 305° |
| 2026-05-04 21:30 | 19.10269 | 91.74701 | 33875 ft | 491 kts | 305° |
| 2026-05-04 21:30 | 19.14429 | 91.68996 | 33874 ft | 489 kts | 305° |
| 2026-05-04 21:31 | 19.20627 | 91.60481 | 33870 ft | 488 kts | 305° |
| 2026-05-04 21:32 | 19.24769 | 91.54782 | 33872 ft | 488 kts | 305° |
| 2026-05-04 21:32 | 19.28898 | 91.49098 | 33875 ft | 488 kts | 304° |
| 2026-05-04 21:33 | 19.33050 | 91.43375 | 33873 ft | 488 kts | 304° |
| 2026-05-04 21:33 | 19.37170 | 91.37693 | 33871 ft | 489 kts | 304° |
| 2026-05-04 21:34 | 19.41322 | 91.31961 | 33875 ft | 489 kts | 304° |
| 2026-05-04 21:34 | 19.45448 | 91.26260 | 33873 ft | 488 kts | 304° |
| 2026-05-04 21:35 | 19.49579 | 91.20547 | 33875 ft | 486 kts | 304° |
| 2026-05-04 21:35 | 19.53666 | 91.14889 | 33872 ft | 486 kts | 304° |
| 2026-05-04 21:36 | 19.57797 | 91.09164 | 33864 ft | 486 kts | 304° |
| 2026-05-04 21:36 | 19.61887 | 91.03490 | 33873 ft | 486 kts | 304° |
| 2026-05-04 21:37 | 19.66012 | 90.97762 | 33875 ft | 486 kts | 304° |
| 2026-05-04 21:37 | 19.70092 | 90.92093 | 33868 ft | 486 kts | 304° |
| 2026-05-04 21:38 | 19.74216 | 90.86356 | 33878 ft | 486 kts | 304° |
| 2026-05-04 21:38 | 19.78295 | 90.80677 | 33871 ft | 486 kts | 304° |
| 2026-05-04 21:39 | 19.82405 | 90.74949 | 33880 ft | 485 kts | 304° |
| 2026-05-04 21:39 | 19.86492 | 90.69248 | 33880 ft | 484 kts | 304° |
| 2026-05-04 21:40 | 19.90543 | 90.63591 | 33880 ft | 483 kts | 304° |
| 2026-05-04 21:40 | 19.94609 | 90.57907 | 33875 ft | 483 kts | 304° |
| 2026-05-04 21:41 | 19.98686 | 90.52203 | 33877 ft | 483 kts | 304° |
| 2026-05-04 21:41 | 20.02747 | 90.46516 | 33877 ft | 483 kts | 304° |
| 2026-05-04 21:42 | 20.06819 | 90.40807 | 33864 ft | 483 kts | 304° |
| 2026-05-04 21:42 | 20.10867 | 90.35128 | 33867 ft | 483 kts | 304° |
| 2026-05-04 21:43 | 20.14919 | 90.29438 | 33872 ft | 482 kts | 304° |
| 2026-05-04 21:43 | 20.18944 | 90.23780 | 33874 ft | 481 kts | 304° |
| 2026-05-04 21:44 | 20.22999 | 90.18073 | 33871 ft | 481 kts | 304° |
| 2026-05-04 21:44 | 20.27037 | 90.12386 | 33870 ft | 481 kts | 304° |
| 2026-05-04 21:45 | 20.31053 | 90.06724 | 33864 ft | 481 kts | 304° |
| 2026-05-04 21:45 | 20.35090 | 90.01026 | 33865 ft | 481 kts | 304° |
| 2026-05-04 21:46 | 20.39120 | 89.95333 | 33868 ft | 481 kts | 303° |
| 2026-05-04 21:46 | 20.43146 | 89.89640 | 33865 ft | 482 kts | 303° |
| 2026-05-04 21:47 | 20.47183 | 89.83925 | 33883 ft | 482 kts | 303° |
| 2026-05-04 21:47 | 20.51208 | 89.78222 | 33863 ft | 481 kts | 304° |
| 2026-05-04 21:48 | 20.55206 | 89.72552 | 33870 ft | 481 kts | 304° |
| 2026-05-04 21:48 | 20.59241 | 89.66825 | 33869 ft | 481 kts | 303° |
| 2026-05-04 21:49 | 20.63246 | 89.61132 | 33870 ft | 481 kts | 303° |
| 2026-05-04 21:49 | 20.66586 | 89.56382 | 33870 ft | 481 kts | 303° |
| 2026-05-04 21:50 | 20.70618 | 89.50642 | 33864 ft | 481 kts | 303° |
| 2026-05-04 21:50 | 20.74638 | 89.44913 | 33864 ft | 481 kts | 303° |
| 2026-05-04 21:51 | 20.78639 | 89.39205 | 33865 ft | 481 kts | 303° |
| 2026-05-04 21:51 | 20.82621 | 89.33519 | 33862 ft | 480 kts | 304° |
| 2026-05-04 21:52 | 20.86633 | 89.27785 | 33861 ft | 480 kts | 304° |
| 2026-05-04 21:52 | 20.90609 | 89.22096 | 33863 ft | 480 kts | 304° |
| 2026-05-04 21:53 | 20.94527 | 89.16313 | 33862 ft | 480 kts | 301° |
| 2026-05-04 21:53 | 20.98211 | 89.10361 | 33862 ft | 480 kts | 300° |
| 2026-05-04 21:54 | 21.01881 | 89.04384 | 33862 ft | 480 kts | 301° |
| 2026-05-04 21:54 | 21.05573 | 88.98448 | 33862 ft | 480 kts | 301° |
| 2026-05-04 21:55 | 21.09298 | 88.92499 | 33859 ft | 480 kts | 301° |
| 2026-05-04 21:55 | 21.13006 | 88.86581 | 33859 ft | 480 kts | 301° |
| 2026-05-04 21:56 | 21.16722 | 88.80640 | 33867 ft | 479 kts | 301° |
| 2026-05-04 21:56 | 21.20431 | 88.74703 | 33864 ft | 479 kts | 301° |
| 2026-05-04 21:57 | 21.24132 | 88.68769 | 33864 ft | 479 kts | 301° |
| 2026-05-04 21:57 | 21.27835 | 88.62827 | 33873 ft | 479 kts | 301° |
| 2026-05-04 21:58 | 21.31516 | 88.56914 | 33870 ft | 479 kts | 301° |
| 2026-05-04 21:58 | 21.35228 | 88.50959 | 33870 ft | 479 kts | 301° |
| 2026-05-04 21:59 | 21.38983 | 88.45070 | 33870 ft | 480 kts | 302° |
| 2026-05-04 21:59 | 21.42754 | 88.39194 | 33878 ft | 480 kts | 302° |
| 2026-05-04 22:00 | 21.46526 | 88.33292 | 33888 ft | 480 kts | 302° |
| 2026-05-04 22:00 | 21.50312 | 88.27349 | 33878 ft | 480 kts | 301° |
| 2026-05-04 22:01 | 21.54070 | 88.21436 | 33883 ft | 480 kts | 301° |
| 2026-05-04 22:01 | 21.57824 | 88.15526 | 33878 ft | 480 kts | 301° |
| 2026-05-04 22:02 | 21.61592 | 88.09586 | 33878 ft | 480 kts | 301° |
| 2026-05-04 22:02 | 21.65349 | 88.03659 | 33878 ft | 481 kts | 301° |
| 2026-05-04 22:03 | 21.69122 | 87.97701 | 33884 ft | 481 kts | 301° |
| 2026-05-04 22:03 | 21.72866 | 87.91780 | 33884 ft | 481 kts | 301° |
| 2026-05-04 22:04 | 21.76622 | 87.85835 | 33886 ft | 481 kts | 301° |
| 2026-05-04 22:04 | 21.80388 | 87.79869 | 33896 ft | 481 kts | 301° |
| 2026-05-04 22:05 | 21.84143 | 87.73911 | 33894 ft | 482 kts | 301° |
| 2026-05-04 22:05 | 21.87914 | 87.67923 | 33891 ft | 483 kts | 301° |
| 2026-05-04 22:06 | 21.91682 | 87.61932 | 33894 ft | 484 kts | 301° |
| 2026-05-04 22:06 | 21.95465 | 87.55911 | 33890 ft | 484 kts | 301° |
| 2026-05-04 22:07 | 21.99238 | 87.49899 | 33895 ft | 484 kts | 301° |
| 2026-05-04 22:07 | 22.03002 | 87.43897 | 33895 ft | 484 kts | 301° |
| 2026-05-04 22:08 | 22.06760 | 87.37894 | 33905 ft | 484 kts | 301° |
| 2026-05-04 22:08 | 22.10515 | 87.31892 | 33906 ft | 484 kts | 301° |
| 2026-05-04 22:09 | 22.14285 | 87.25859 | 33908 ft | 485 kts | 301° |
| 2026-05-04 22:09 | 22.18039 | 87.19843 | 33919 ft | 485 kts | 301° |
| 2026-05-04 22:10 | 22.21803 | 87.13805 | 33922 ft | 485 kts | 301° |
| 2026-05-04 22:10 | 22.25566 | 87.07762 | 33924 ft | 485 kts | 301° |
| 2026-05-04 22:11 | 22.29335 | 87.01703 | 33923 ft | 485 kts | 301° |
| 2026-05-04 22:11 | 22.33075 | 86.95683 | 33933 ft | 485 kts | 301° |
| 2026-05-04 22:12 | 22.36827 | 86.89638 | 33939 ft | 486 kts | 301° |
| 2026-05-04 22:12 | 22.40607 | 86.83538 | 33940 ft | 487 kts | 301° |
| 2026-05-04 22:13 | 22.44355 | 86.77485 | 33948 ft | 489 kts | 301° |
| 2026-05-04 22:13 | 22.48161 | 86.71322 | 33948 ft | 497 kts | 301° |
| 2026-05-04 22:14 | 22.52031 | 86.65060 | 33944 ft | 498 kts | 301° |
| 2026-05-04 22:14 | 22.55858 | 86.58864 | 33955 ft | 497 kts | 301° |
| 2026-05-04 22:15 | 22.59707 | 86.52621 | 33956 ft | 496 kts | 301° |
| 2026-05-04 22:15 | 22.63503 | 86.46456 | 33955 ft | 495 kts | 301° |
| 2026-05-04 22:16 | 22.67323 | 86.40240 | 33952 ft | 495 kts | 301° |
| 2026-05-04 22:16 | 22.71150 | 86.34008 | 33954 ft | 495 kts | 301° |
| 2026-05-04 22:17 | 22.74942 | 86.27826 | 33966 ft | 495 kts | 300° |
| 2026-05-04 22:17 | 22.78764 | 86.21582 | 33952 ft | 497 kts | 300° |
| 2026-05-04 22:18 | 22.82909 | 86.15550 | 33954 ft | 501 kts | 307° |
| 2026-05-04 22:18 | 22.87500 | 86.09866 | 33955 ft | 502 kts | 308° |
| 2026-05-04 22:19 | 22.92182 | 86.04211 | 33959 ft | 502 kts | 308° |
| 2026-05-04 22:19 | 22.96852 | 85.98573 | 33957 ft | 502 kts | 308° |
| 2026-05-04 22:20 | 23.01508 | 85.92926 | 33960 ft | 502 kts | 308° |
| 2026-05-04 22:20 | 23.06158 | 85.87271 | 33972 ft | 502 kts | 308° |
| 2026-05-04 22:21 | 23.10805 | 85.81609 | 33964 ft | 505 kts | 308° |
| 2026-05-04 22:21 | 23.15465 | 85.75928 | 33966 ft | 505 kts | 308° |
| 2026-05-04 22:22 | 23.20140 | 85.70221 | 33973 ft | 505 kts | 308° |
| 2026-05-04 22:22 | 23.24834 | 85.64486 | 33972 ft | 505 kts | 308° |
| 2026-05-04 22:23 | 23.29473 | 85.58811 | 33972 ft | 505 kts | 308° |
| 2026-05-04 22:23 | 23.34160 | 85.53071 | 33975 ft | 505 kts | 308° |
| 2026-05-04 22:24 | 23.38795 | 85.47388 | 33972 ft | 505 kts | 307° |
| 2026-05-04 22:24 | 23.43470 | 85.41649 | 33972 ft | 506 kts | 307° |
| 2026-05-04 22:25 | 23.48124 | 85.35930 | 33970 ft | 505 kts | 307° |
| 2026-05-04 22:25 | 23.52788 | 85.30191 | 33981 ft | 505 kts | 307° |
| 2026-05-04 22:26 | 23.57453 | 85.24445 | 33978 ft | 505 kts | 307° |
| 2026-05-04 22:26 | 23.62095 | 85.18720 | 33973 ft | 505 kts | 307° |
| 2026-05-04 22:27 | 23.66748 | 85.12975 | 33973 ft | 505 kts | 307° |
| 2026-05-04 22:27 | 23.71377 | 85.07253 | 33949 ft | 504 kts | 306° |
| 2026-05-04 22:28 | 23.76030 | 85.01496 | 33964 ft | 502 kts | 306° |
| 2026-05-04 22:28 | 23.80629 | 84.95801 | 33944 ft | 500 kts | 306° |
| 2026-05-04 22:29 | 23.85220 | 84.90104 | 33942 ft | 499 kts | 306° |
| 2026-05-04 22:29 | 23.89797 | 84.84419 | 33941 ft | 499 kts | 306° |
| 2026-05-04 22:30 | 23.94401 | 84.78692 | 33924 ft | 499 kts | 306° |
| 2026-05-04 22:30 | 23.98979 | 84.72994 | 33943 ft | 499 kts | 305° |
| 2026-05-04 22:31 | 24.03553 | 84.67294 | 33931 ft | 500 kts | 305° |
| 2026-05-04 22:31 | 24.08117 | 84.61600 | 33907 ft | 498 kts | 305° |
| 2026-05-04 22:32 | 24.12702 | 84.55874 | 33911 ft | 498 kts | 305° |
| 2026-05-04 22:32 | 24.17247 | 84.50189 | 33898 ft | 498 kts | 305° |
| 2026-05-04 22:33 | 24.21786 | 84.44508 | 34241 ft | 493 kts | 305° |
| 2026-05-04 22:33 | 24.24056 | 84.41659 | 34574 ft | 488 kts | 304° |
| 2026-05-04 22:33 | 24.26249 | 84.38893 | 34818 ft | 486 kts | 304° |
| 2026-05-04 22:33 | 24.28462 | 84.36093 | 35013 ft | 484 kts | 304° |
| 2026-05-04 22:34 | 24.30670 | 84.33298 | 35240 ft | 481 kts | 304° |
| 2026-05-04 22:34 | 24.32862 | 84.30522 | 35448 ft | 480 kts | 304° |
| 2026-05-04 22:34 | 24.35022 | 84.27785 | 35607 ft | 478 kts | 304° |
| 2026-05-04 22:34 | 24.37191 | 84.25037 | 35814 ft | 477 kts | 304° |
| 2026-05-04 22:35 | 24.39384 | 84.22256 | 35887 ft | 478 kts | 304° |
| 2026-05-04 22:35 | 24.43748 | 84.16714 | 35885 ft | 483 kts | 304° |
| 2026-05-04 22:36 | 24.48134 | 84.11148 | 35885 ft | 483 kts | 304° |
| 2026-05-04 22:36 | 24.51794 | 84.06501 | 35884 ft | 483 kts | 304° |
| 2026-05-04 22:37 | 24.56192 | 84.00910 | 35881 ft | 483 kts | 304° |
| 2026-05-04 22:37 | 24.60548 | 83.95363 | 35875 ft | 482 kts | 303° |
| 2026-05-04 22:38 | 24.64933 | 83.89774 | 35880 ft | 481 kts | 303° |
| 2026-05-04 22:38 | 24.69282 | 83.84223 | 35878 ft | 480 kts | 303° |
| 2026-05-04 22:39 | 24.73646 | 83.78645 | 35876 ft | 480 kts | 303° |
| 2026-05-04 22:39 | 24.78014 | 83.73056 | 35875 ft | 480 kts | 303° |
| 2026-05-04 22:40 | 24.82335 | 83.67521 | 35876 ft | 480 kts | 303° |
| 2026-05-04 22:40 | 24.86704 | 83.61919 | 35875 ft | 480 kts | 303° |
| 2026-05-04 22:41 | 24.91033 | 83.56362 | 35873 ft | 477 kts | 303° |
| 2026-05-04 22:41 | 24.95347 | 83.50820 | 35865 ft | 474 kts | 303° |
| 2026-05-04 22:42 | 24.99639 | 83.45296 | 35865 ft | 474 kts | 303° |
| 2026-05-04 22:42 | 25.03894 | 83.39812 | 35864 ft | 474 kts | 303° |
| 2026-05-04 22:43 | 25.08180 | 83.34282 | 35864 ft | 474 kts | 303° |
| 2026-05-04 22:43 | 25.12449 | 83.28769 | 35862 ft | 474 kts | 303° |
| 2026-05-04 22:44 | 25.16746 | 83.23214 | 35862 ft | 474 kts | 303° |
| 2026-05-04 22:44 | 25.21001 | 83.17705 | 35862 ft | 473 kts | 303° |
| 2026-05-04 22:45 | 25.25270 | 83.12173 | 35857 ft | 474 kts | 303° |
| 2026-05-04 22:45 | 25.31685 | 83.03846 | 35885 ft | 474 kts | 303° |
| 2026-05-04 22:46 | 25.35960 | 82.98289 | 35898 ft | 474 kts | 303° |
| 2026-05-04 22:46 | 25.40234 | 82.92727 | 35914 ft | 474 kts | 303° |
| 2026-05-04 22:47 | 25.44500 | 82.87170 | 35912 ft | 474 kts | 303° |
| 2026-05-04 22:47 | 25.48630 | 82.81548 | 35918 ft | 471 kts | 300° |
| 2026-05-04 22:48 | 25.52514 | 82.75688 | 35904 ft | 469 kts | 299° |
| 2026-05-04 22:48 | 25.56345 | 82.69873 | 35888 ft | 468 kts | 300° |
| 2026-05-04 22:49 | 25.60233 | 82.64063 | 35875 ft | 468 kts | 300° |
| 2026-05-04 22:49 | 25.64124 | 82.58290 | 35861 ft | 468 kts | 300° |
| 2026-05-04 22:50 | 25.68019 | 82.52514 | 35851 ft | 468 kts | 300° |
| 2026-05-04 22:50 | 25.71900 | 82.46749 | 35853 ft | 468 kts | 300° |
| 2026-05-04 22:51 | 25.75799 | 82.40946 | 35876 ft | 468 kts | 300° |
| 2026-05-04 22:51 | 25.79682 | 82.35159 | 35861 ft | 469 kts | 300° |
| 2026-05-04 22:52 | 25.83573 | 82.29352 | 35863 ft | 469 kts | 300° |
| 2026-05-04 22:52 | 25.87466 | 82.23538 | 35860 ft | 469 kts | 300° |
| 2026-05-04 22:53 | 25.91358 | 82.17716 | 35861 ft | 469 kts | 300° |
| 2026-05-04 22:53 | 25.95254 | 82.11882 | 35866 ft | 469 kts | 300° |
| 2026-05-04 22:54 | 25.99125 | 82.06077 | 35868 ft | 469 kts | 300° |
| 2026-05-04 22:54 | 26.03016 | 82.00235 | 35866 ft | 469 kts | 300° |
| 2026-05-04 22:55 | 26.06886 | 81.94416 | 35872 ft | 469 kts | 300° |
| 2026-05-04 22:55 | 26.10754 | 81.88594 | 35873 ft | 469 kts | 300° |
| 2026-05-04 22:56 | 26.14625 | 81.82760 | 35873 ft | 469 kts | 300° |
| 2026-05-04 22:56 | 26.18515 | 81.76889 | 35878 ft | 469 kts | 300° |
| 2026-05-04 22:57 | 26.22375 | 81.71057 | 35878 ft | 469 kts | 300° |
| 2026-05-04 22:57 | 26.26236 | 81.65215 | 35887 ft | 469 kts | 300° |
| 2026-05-04 22:58 | 26.30110 | 81.59348 | 35883 ft | 468 kts | 300° |
| 2026-05-04 22:58 | 26.33954 | 81.53517 | 35886 ft | 469 kts | 300° |
| 2026-05-04 22:59 | 26.37820 | 81.47644 | 35889 ft | 470 kts | 300° |
| 2026-05-04 22:59 | 26.41687 | 81.41763 | 35889 ft | 470 kts | 300° |
| 2026-05-04 23:00 | 26.45566 | 81.35857 | 35892 ft | 470 kts | 300° |
| 2026-05-04 23:00 | 26.49427 | 81.29971 | 35895 ft | 470 kts | 300° |
| 2026-05-04 23:01 | 26.53267 | 81.24108 | 35892 ft | 470 kts | 300° |
| 2026-05-04 23:01 | 26.57144 | 81.18184 | 35892 ft | 469 kts | 300° |
| 2026-05-04 23:02 | 26.60974 | 81.12321 | 35903 ft | 469 kts | 300° |
| 2026-05-04 23:02 | 26.64824 | 81.06422 | 35894 ft | 469 kts | 300° |
| 2026-05-04 23:03 | 26.68652 | 81.00547 | 35897 ft | 469 kts | 300° |
| 2026-05-04 23:03 | 26.72482 | 80.94661 | 35856 ft | 469 kts | 300° |
| 2026-05-04 23:04 | 26.76316 | 80.88765 | 35859 ft | 468 kts | 300° |
| 2026-05-04 23:04 | 26.80437 | 80.83128 | 35856 ft | 469 kts | 305° |
| 2026-05-04 23:05 | 26.84791 | 80.77635 | 35862 ft | 469 kts | 306° |
| 2026-05-04 23:05 | 26.89077 | 80.72155 | 35875 ft | 470 kts | 305° |
| 2026-05-04 23:06 | 26.93345 | 80.66590 | 35892 ft | 471 kts | 304° |
| 2026-05-04 23:06 | 26.97585 | 80.61019 | 35897 ft | 471 kts | 304° |
| 2026-05-04 23:07 | 27.01861 | 80.55392 | 35898 ft | 471 kts | 304° |
| 2026-05-04 23:07 | 27.06110 | 80.49796 | 35897 ft | 471 kts | 304° |
| 2026-05-04 23:08 | 27.10337 | 80.44225 | 35892 ft | 471 kts | 304° |
| 2026-05-04 23:08 | 27.14591 | 80.38611 | 35918 ft | 471 kts | 304° |
| 2026-05-04 23:09 | 27.18832 | 80.33007 | 35888 ft | 472 kts | 304° |
| 2026-05-04 23:09 | 27.23092 | 80.27371 | 35883 ft | 472 kts | 304° |
| 2026-05-04 23:10 | 27.27324 | 80.21764 | 35892 ft | 472 kts | 304° |
| 2026-05-04 23:10 | 27.31572 | 80.16129 | 35894 ft | 472 kts | 304° |
| 2026-05-04 23:11 | 27.35827 | 80.10478 | 35885 ft | 471 kts | 304° |
| 2026-05-04 23:11 | 27.40040 | 80.04875 | 35892 ft | 471 kts | 304° |
| 2026-05-04 23:12 | 27.44283 | 79.99226 | 35886 ft | 469 kts | 304° |
| 2026-05-04 23:12 | 27.48484 | 79.93624 | 35885 ft | 469 kts | 304° |
| 2026-05-04 23:13 | 27.52677 | 79.88024 | 35883 ft | 469 kts | 304° |
| 2026-05-04 23:13 | 27.56870 | 79.82419 | 35884 ft | 469 kts | 304° |
| 2026-05-04 23:14 | 27.61099 | 79.76758 | 35887 ft | 467 kts | 304° |
| 2026-05-04 23:14 | 27.65252 | 79.71193 | 35881 ft | 466 kts | 304° |
| 2026-05-04 23:15 | 27.69499 | 79.65612 | 35904 ft | 469 kts | 308° |
| 2026-05-04 23:15 | 27.74082 | 79.60340 | 35885 ft | 472 kts | 308° |
| 2026-05-04 23:16 | 27.78735 | 79.55120 | 35882 ft | 473 kts | 309° |
| 2026-05-04 23:16 | 27.83384 | 79.49922 | 35881 ft | 473 kts | 309° |
| 2026-05-04 23:17 | 27.88053 | 79.44685 | 35881 ft | 473 kts | 309° |
| 2026-05-04 23:17 | 27.92717 | 79.39435 | 35882 ft | 474 kts | 309° |
| 2026-05-04 23:18 | 27.97406 | 79.34148 | 35885 ft | 476 kts | 309° |
| 2026-05-04 23:18 | 28.02075 | 79.28880 | 35886 ft | 476 kts | 309° |
| 2026-05-04 23:19 | 28.06758 | 79.23589 | 35883 ft | 476 kts | 309° |
| 2026-05-04 23:19 | 28.11454 | 79.18276 | 35881 ft | 476 kts | 309° |
| 2026-05-04 23:20 | 28.16130 | 79.12979 | 35878 ft | 476 kts | 309° |
| 2026-05-04 23:20 | 28.20810 | 79.07669 | 35883 ft | 476 kts | 309° |
| 2026-05-04 23:21 | 28.25482 | 79.02363 | 35878 ft | 475 kts | 308° |
| 2026-05-04 23:21 | 28.30150 | 78.97056 | 35879 ft | 474 kts | 308° |
| 2026-05-04 23:22 | 28.34795 | 78.91765 | 35886 ft | 474 kts | 308° |
| 2026-05-04 23:22 | 28.39432 | 78.86475 | 35884 ft | 474 kts | 308° |
| 2026-05-04 23:23 | 28.43322 | 78.82034 | 35879 ft | 474 kts | 308° |
| 2026-05-04 23:23 | 28.49042 | 78.76182 | 35904 ft | 480 kts | 315° |
| 2026-05-04 23:24 | 28.53455 | 78.72279 | 35882 ft | 480 kts | 315° |
| 2026-05-04 23:24 | 28.58765 | 78.67682 | 35888 ft | 480 kts | 316° |
| 2026-05-04 23:25 | 28.64087 | 78.63080 | 35884 ft | 481 kts | 316° |
| 2026-05-04 23:25 | 28.69415 | 78.58452 | 35884 ft | 481 kts | 315° |
| 2026-05-04 23:26 | 28.74715 | 78.53834 | 35884 ft | 481 kts | 315° |
| 2026-05-04 23:26 | 28.80044 | 78.49184 | 35885 ft | 480 kts | 315° |
| 2026-05-04 23:27 | 28.85343 | 78.44553 | 35884 ft | 480 kts | 315° |
| 2026-05-04 23:27 | 28.90654 | 78.39907 | 35881 ft | 480 kts | 315° |
| 2026-05-04 23:28 | 28.95947 | 78.35269 | 35884 ft | 480 kts | 315° |
| 2026-05-04 23:28 | 29.01233 | 78.30632 | 35877 ft | 480 kts | 315° |
| 2026-05-04 23:29 | 29.06546 | 78.25965 | 35881 ft | 479 kts | 316° |
| 2026-05-04 23:29 | 29.11794 | 78.21349 | 35881 ft | 479 kts | 316° |
| 2026-05-04 23:30 | 29.17073 | 78.16700 | 35884 ft | 479 kts | 315° |
| 2026-05-04 23:30 | 29.22337 | 78.12057 | 35883 ft | 478 kts | 315° |
| 2026-05-04 23:31 | 29.27634 | 78.07379 | 35884 ft | 478 kts | 315° |
| 2026-05-04 23:31 | 29.32899 | 78.02723 | 35884 ft | 478 kts | 316° |
| 2026-05-04 23:32 | 29.38135 | 77.98088 | 35884 ft | 477 kts | 316° |
| 2026-05-04 23:32 | 29.43384 | 77.93433 | 35885 ft | 477 kts | 316° |
| 2026-05-04 23:33 | 29.48628 | 77.88778 | 35884 ft | 476 kts | 316° |
| 2026-05-04 23:33 | 29.53851 | 77.84135 | 35884 ft | 476 kts | 316° |
| 2026-05-04 23:34 | 29.59094 | 77.79466 | 35882 ft | 475 kts | 316° |
| 2026-05-04 23:34 | 29.64297 | 77.74828 | 35889 ft | 475 kts | 316° |
| 2026-05-04 23:35 | 29.69552 | 77.70137 | 35883 ft | 475 kts | 316° |
| 2026-05-04 23:35 | 29.74739 | 77.65501 | 35883 ft | 475 kts | 316° |
| 2026-05-04 23:36 | 29.79969 | 77.60820 | 35887 ft | 475 kts | 316° |
| 2026-05-04 23:36 | 29.85164 | 77.56163 | 35888 ft | 474 kts | 316° |
| 2026-05-04 23:37 | 29.90382 | 77.51481 | 35889 ft | 473 kts | 316° |
| 2026-05-04 23:37 | 29.95565 | 77.46823 | 35890 ft | 473 kts | 316° |
| 2026-05-04 23:38 | 30.01092 | 77.42609 | 35890 ft | 481 kts | 326° |
| 2026-05-04 23:38 | 30.07033 | 77.39033 | 35893 ft | 483 kts | 327° |
| 2026-05-04 23:39 | 30.13037 | 77.35563 | 35895 ft | 483 kts | 328° |
| 2026-05-04 23:39 | 30.19050 | 77.32093 | 35895 ft | 483 kts | 327° |
| 2026-05-04 23:40 | 30.25026 | 77.28621 | 35903 ft | 483 kts | 327° |
| 2026-05-04 23:40 | 30.31046 | 77.25108 | 35903 ft | 482 kts | 327° |
| 2026-05-04 23:41 | 30.36988 | 77.21493 | 35908 ft | 477 kts | 322° |
| 2026-05-04 23:41 | 30.41981 | 77.16639 | 35909 ft | 464 kts | 306° |
| 2026-05-04 23:42 | 30.46030 | 77.10833 | 35910 ft | 462 kts | 303° |
| 2026-05-04 23:42 | 30.49869 | 77.04934 | 35897 ft | 462 kts | 302° |
| 2026-05-04 23:43 | 30.53726 | 76.98961 | 35911 ft | 462 kts | 303° |
| 2026-05-04 23:43 | 30.57613 | 76.92980 | 35897 ft | 462 kts | 303° |
| 2026-05-04 23:44 | 30.61471 | 76.87062 | 35859 ft | 462 kts | 303° |
| 2026-05-04 23:44 | 30.65366 | 76.81084 | 35854 ft | 462 kts | 303° |
| 2026-05-04 23:45 | 30.68753 | 76.74811 | 35855 ft | 455 kts | 291° |
| 2026-05-04 23:45 | 30.71237 | 76.68087 | 35858 ft | 454 kts | 289° |
| 2026-05-04 23:46 | 30.73569 | 76.61268 | 35866 ft | 454 kts | 289° |
| 2026-05-04 23:46 | 30.75874 | 76.54452 | 35876 ft | 454 kts | 289° |
| 2026-05-04 23:47 | 30.78193 | 76.47631 | 35882 ft | 454 kts | 289° |
| 2026-05-04 23:47 | 30.80523 | 76.40799 | 35915 ft | 454 kts | 289° |
| 2026-05-04 23:48 | 30.82855 | 76.33951 | 35892 ft | 454 kts | 289° |
| 2026-05-04 23:48 | 30.85161 | 76.27168 | 35892 ft | 454 kts | 289° |
| 2026-05-04 23:49 | 30.87486 | 76.20314 | 35889 ft | 454 kts | 289° |
| 2026-05-04 23:49 | 30.89801 | 76.13471 | 35890 ft | 454 kts | 289° |
| 2026-05-04 23:50 | 30.92105 | 76.06650 | 35887 ft | 454 kts | 289° |
| 2026-05-04 23:50 | 30.94410 | 75.99811 | 35887 ft | 454 kts | 289° |
| 2026-05-04 23:51 | 30.96730 | 75.92916 | 35889 ft | 454 kts | 289° |
| 2026-05-04 23:51 | 30.99020 | 75.86093 | 35886 ft | 454 kts | 289° |
| 2026-05-04 23:52 | 31.01322 | 75.79223 | 35898 ft | 454 kts | 289° |
| 2026-05-04 23:52 | 31.03602 | 75.72401 | 35884 ft | 454 kts | 289° |
| 2026-05-04 23:53 | 31.05886 | 75.65554 | 35888 ft | 454 kts | 289° |
| 2026-05-04 23:53 | 31.08169 | 75.58697 | 35884 ft | 454 kts | 289° |
| 2026-05-04 23:54 | 31.10456 | 75.51817 | 35881 ft | 454 kts | 289° |
| 2026-05-04 23:54 | 31.12670 | 75.44948 | 35881 ft | 453 kts | 286° |
| 2026-05-04 23:55 | 31.14450 | 75.37898 | 35885 ft | 453 kts | 284° |
| 2026-05-04 23:56 | 31.16986 | 75.27285 | 35884 ft | 453 kts | 284° |
| 2026-05-04 23:56 | 31.18749 | 75.20211 | 35881 ft | 453 kts | 285° |
| 2026-05-04 23:57 | 31.20524 | 75.13185 | 35906 ft | 453 kts | 285° |
| 2026-05-04 23:57 | 31.22305 | 75.06124 | 35892 ft | 453 kts | 285° |
| 2026-05-04 23:58 | 31.24083 | 74.99047 | 35884 ft | 453 kts | 285° |
| 2026-05-04 23:58 | 31.25851 | 74.91987 | 35872 ft | 453 kts | 285° |
| 2026-05-04 23:59 | 31.27615 | 74.84925 | 35885 ft | 453 kts | 285° |
| 2026-05-04 23:59 | 31.29370 | 74.77878 | 35889 ft | 453 kts | 285° |
| 2026-05-05 00:00 | 31.31127 | 74.70806 | 35888 ft | 452 kts | 285° |
| 2026-05-05 00:00 | 31.32912 | 74.63742 | 35884 ft | 453 kts | 288° |
| 2026-05-05 00:01 | 31.35711 | 74.57134 | 35889 ft | 456 kts | 302° |
| 2026-05-05 00:01 | 31.40061 | 74.51712 | 35912 ft | 463 kts | 316° |
| 2026-05-05 00:02 | 31.45137 | 74.47021 | 35910 ft | 465 kts | 319° |
| 2026-05-05 00:02 | 31.50277 | 74.42473 | 35910 ft | 465 kts | 319° |
| 2026-05-05 00:03 | 31.55413 | 74.37900 | 35911 ft | 465 kts | 319° |
| 2026-05-05 00:03 | 31.60553 | 74.33274 | 35912 ft | 465 kts | 319° |
| 2026-05-05 00:04 | 31.65654 | 74.28662 | 35894 ft | 465 kts | 319° |
| 2026-05-05 00:04 | 31.70797 | 74.24002 | 35886 ft | 464 kts | 319° |
| 2026-05-05 00:05 | 31.75901 | 74.19373 | 35894 ft | 464 kts | 319° |
| 2026-05-05 00:05 | 31.81024 | 74.14722 | 35893 ft | 464 kts | 319° |
| 2026-05-05 00:06 | 31.86111 | 74.10096 | 35899 ft | 464 kts | 319° |
| 2026-05-05 00:06 | 31.91243 | 74.05423 | 35909 ft | 464 kts | 319° |
| 2026-05-05 00:07 | 31.96333 | 74.00782 | 35906 ft | 464 kts | 319° |
| 2026-05-05 00:07 | 32.01431 | 73.96126 | 35902 ft | 464 kts | 319° |
| 2026-05-05 00:08 | 32.06526 | 73.91467 | 35916 ft | 463 kts | 319° |
| 2026-05-05 00:08 | 32.10771 | 73.87580 | 35914 ft | 463 kts | 319° |
| 2026-05-05 00:09 | 32.15841 | 73.82930 | 35920 ft | 465 kts | 319° |
| 2026-05-05 00:09 | 32.21801 | 73.77456 | 35923 ft | 466 kts | 319° |
| 2026-05-05 00:10 | 32.26099 | 73.73503 | 35923 ft | 466 kts | 319° |
| 2026-05-05 00:10 | 32.31201 | 73.68805 | 35927 ft | 466 kts | 319° |
| 2026-05-05 00:11 | 32.36291 | 73.64110 | 35929 ft | 466 kts | 319° |
| 2026-05-05 00:11 | 32.41393 | 73.59399 | 35924 ft | 462 kts | 319° |
| 2026-05-05 00:12 | 32.46453 | 73.54718 | 35922 ft | 461 kts | 319° |
| 2026-05-05 00:12 | 32.51479 | 73.50061 | 35925 ft | 461 kts | 319° |
| 2026-05-05 00:13 | 32.56560 | 73.45347 | 35923 ft | 461 kts | 319° |
| 2026-05-05 00:13 | 32.61602 | 73.40662 | 35931 ft | 461 kts | 319° |
| 2026-05-05 00:14 | 32.66635 | 73.35979 | 35927 ft | 461 kts | 319° |
| 2026-05-05 00:14 | 32.71674 | 73.31283 | 35928 ft | 461 kts | 319° |
| 2026-05-05 00:15 | 32.76457 | 73.26289 | 35935 ft | 456 kts | 309° |
| 2026-05-05 00:15 | 32.80225 | 73.20311 | 35939 ft | 453 kts | 303° |
| 2026-05-05 00:16 | 32.83718 | 73.14081 | 35940 ft | 453 kts | 301° |
| 2026-05-05 00:16 | 32.87168 | 73.07798 | 35950 ft | 453 kts | 301° |
| 2026-05-05 00:17 | 32.90634 | 73.01508 | 35948 ft | 453 kts | 302° |
| 2026-05-05 00:17 | 32.94074 | 72.95284 | 35949 ft | 453 kts | 302° |
| 2026-05-05 00:18 | 32.97527 | 72.89038 | 35955 ft | 452 kts | 302° |
| 2026-05-05 00:18 | 33.00995 | 72.82754 | 35958 ft | 452 kts | 302° |
| 2026-05-05 00:19 | 33.04432 | 72.76514 | 35957 ft | 452 kts | 302° |
| 2026-05-05 00:19 | 33.07871 | 72.70260 | 35958 ft | 452 kts | 302° |
| 2026-05-05 00:20 | 33.11301 | 72.64011 | 35957 ft | 452 kts | 302° |
| 2026-05-05 00:20 | 33.14758 | 72.57701 | 35955 ft | 452 kts | 302° |
| 2026-05-05 00:21 | 33.18180 | 72.51446 | 35956 ft | 451 kts | 302° |
| 2026-05-05 00:21 | 33.21598 | 72.45187 | 35984 ft | 451 kts | 302° |
| 2026-05-05 00:22 | 33.25036 | 72.38881 | 35955 ft | 450 kts | 302° |
| 2026-05-05 00:22 | 33.28441 | 72.32626 | 35955 ft | 450 kts | 302° |
| 2026-05-05 00:23 | 33.31851 | 72.26349 | 35953 ft | 450 kts | 302° |
| 2026-05-05 00:23 | 33.35260 | 72.20063 | 35952 ft | 449 kts | 302° |
| 2026-05-05 00:24 | 33.38646 | 72.13810 | 35951 ft | 449 kts | 302° |
| 2026-05-05 00:24 | 33.42022 | 72.07565 | 35968 ft | 449 kts | 302° |
| 2026-05-05 00:25 | 33.45410 | 72.01288 | 35956 ft | 448 kts | 302° |
| 2026-05-05 00:25 | 33.48793 | 71.95008 | 35958 ft | 447 kts | 302° |
| 2026-05-05 00:26 | 33.51797 | 71.88520 | 35958 ft | 446 kts | 292° |
| 2026-05-05 00:26 | 33.53300 | 71.81318 | 35966 ft | 447 kts | 277° |
| 2026-05-05 00:27 | 33.53233 | 71.73861 | 35966 ft | 450 kts | 269° |
| 2026-05-05 00:27 | 33.52775 | 71.66393 | 35968 ft | 451 kts | 268° |
| 2026-05-05 00:28 | 33.52269 | 71.58860 | 35970 ft | 451 kts | 268° |
| 2026-05-05 00:28 | 33.51791 | 71.51372 | 35974 ft | 451 kts | 269° |
| 2026-05-05 00:29 | 33.51328 | 71.43870 | 35976 ft | 451 kts | 269° |
| 2026-05-05 00:29 | 33.50867 | 71.36394 | 35983 ft | 451 kts | 269° |
| 2026-05-05 00:30 | 33.50401 | 71.28915 | 35989 ft | 450 kts | 269° |
| 2026-05-05 00:30 | 33.49929 | 71.21451 | 35991 ft | 451 kts | 269° |
| 2026-05-05 00:31 | 33.49451 | 71.13950 | 35998 ft | 451 kts | 269° |
| 2026-05-05 00:31 | 33.49622 | 71.06499 | 35997 ft | 446 kts | 281° |
| 2026-05-05 00:32 | 33.51459 | 70.99485 | 35999 ft | 443 kts | 296° |
| 2026-05-05 00:32 | 33.54984 | 70.93435 | 36007 ft | 446 kts | 312° |
| 2026-05-05 00:33 | 33.59422 | 70.88241 | 36006 ft | 447 kts | 315° |
| 2026-05-05 00:33 | 33.63969 | 70.83190 | 36018 ft | 446 kts | 315° |
| 2026-05-05 00:34 | 33.68544 | 70.78087 | 36019 ft | 446 kts | 315° |
| 2026-05-05 00:34 | 33.73062 | 70.72993 | 36033 ft | 446 kts | 314° |
| 2026-05-05 00:35 | 33.77580 | 70.67874 | 36027 ft | 446 kts | 314° |
| 2026-05-05 00:35 | 33.82084 | 70.62759 | 36028 ft | 447 kts | 314° |
| 2026-05-05 00:36 | 33.86592 | 70.57634 | 36031 ft | 447 kts | 314° |
| 2026-05-05 00:36 | 33.91095 | 70.52453 | 36020 ft | 446 kts | 312° |
| 2026-05-05 00:37 | 33.94776 | 70.46495 | 36039 ft | 443 kts | 300° |
| 2026-05-05 00:37 | 33.97767 | 70.40037 | 36029 ft | 443 kts | 298° |
| 2026-05-05 00:38 | 34.00645 | 70.33483 | 36033 ft | 443 kts | 298° |
| 2026-05-05 00:38 | 34.03517 | 70.26902 | 36028 ft | 444 kts | 298° |
| 2026-05-05 00:39 | 34.06387 | 70.20351 | 36029 ft | 443 kts | 298° |
| 2026-05-05 00:39 | 34.09279 | 70.13764 | 36032 ft | 442 kts | 298° |
| 2026-05-05 00:40 | 34.12147 | 70.07227 | 36033 ft | 443 kts | 298° |
| 2026-05-05 00:40 | 34.15035 | 70.00628 | 36041 ft | 444 kts | 298° |
| 2026-05-05 00:41 | 34.17914 | 69.94032 | 36034 ft | 445 kts | 298° |
| 2026-05-05 00:41 | 34.20785 | 69.87412 | 36037 ft | 444 kts | 298° |
| 2026-05-05 00:42 | 34.23630 | 69.80790 | 36040 ft | 442 kts | 298° |
| 2026-05-05 00:42 | 34.26445 | 69.74232 | 36043 ft | 441 kts | 298° |
| 2026-05-05 00:43 | 34.29282 | 69.67618 | 36048 ft | 442 kts | 298° |
| 2026-05-05 00:43 | 34.32097 | 69.61047 | 36045 ft | 443 kts | 297° |
| 2026-05-05 00:44 | 34.34925 | 69.54434 | 36044 ft | 442 kts | 297° |
| 2026-05-05 00:44 | 34.37750 | 69.47815 | 36046 ft | 441 kts | 298° |
| 2026-05-05 00:45 | 34.40555 | 69.41232 | 36039 ft | 441 kts | 298° |
| 2026-05-05 00:45 | 34.43361 | 69.34633 | 36042 ft | 441 kts | 298° |
| 2026-05-05 00:46 | 34.46175 | 69.28002 | 36051 ft | 441 kts | 297° |
| 2026-05-05 00:46 | 34.49014 | 69.21408 | 36043 ft | 442 kts | 301° |
| 2026-05-05 00:47 | 34.52743 | 69.15518 | 36039 ft | 441 kts | 314° |
| 2026-05-05 00:47 | 34.57654 | 69.11136 | 36054 ft | 444 kts | 327° |
| 2026-05-05 00:48 | 34.63100 | 69.07517 | 36059 ft | 445 kts | 329° |
| 2026-05-05 00:48 | 34.68577 | 69.04039 | 36058 ft | 445 kts | 329° |
| 2026-05-05 00:49 | 34.74085 | 69.00518 | 36064 ft | 445 kts | 328° |
| 2026-05-05 00:49 | 34.79538 | 68.96993 | 36078 ft | 445 kts | 328° |
| 2026-05-05 00:50 | 34.84974 | 68.93461 | 36083 ft | 446 kts | 328° |
| 2026-05-05 00:50 | 34.90462 | 68.89889 | 36090 ft | 447 kts | 329° |
| 2026-05-05 00:51 | 34.95947 | 68.86318 | 36088 ft | 447 kts | 329° |
| 2026-05-05 00:51 | 35.01415 | 68.82750 | 36104 ft | 446 kts | 329° |
| 2026-05-05 00:52 | 35.06888 | 68.79173 | 36112 ft | 446 kts | 329° |
| 2026-05-05 00:52 | 35.12351 | 68.75598 | 36118 ft | 447 kts | 329° |
| 2026-05-05 00:53 | 35.17859 | 68.71988 | 36132 ft | 447 kts | 328° |
| 2026-05-05 00:53 | 35.23333 | 68.68388 | 36123 ft | 447 kts | 328° |
| 2026-05-05 00:54 | 35.28793 | 68.64800 | 36129 ft | 447 kts | 329° |
| 2026-05-05 00:54 | 35.34260 | 68.61202 | 36115 ft | 446 kts | 329° |
| 2026-05-05 00:55 | 35.39752 | 68.57587 | 36105 ft | 447 kts | 329° |
| 2026-05-05 00:55 | 35.45215 | 68.53975 | 36105 ft | 446 kts | 328° |
| 2026-05-05 00:56 | 35.49779 | 68.50952 | 36095 ft | 446 kts | 328° |
| 2026-05-05 00:56 | 35.55231 | 68.47340 | 36080 ft | 446 kts | 329° |
| 2026-05-05 00:57 | 35.60689 | 68.43720 | 36085 ft | 447 kts | 329° |
| 2026-05-05 00:57 | 35.66133 | 68.40086 | 36092 ft | 447 kts | 328° |
| 2026-05-05 00:58 | 35.71599 | 68.36418 | 36102 ft | 447 kts | 328° |
| 2026-05-05 00:58 | 35.77068 | 68.32745 | 36087 ft | 449 kts | 328° |
| 2026-05-05 00:59 | 35.82561 | 68.29054 | 36077 ft | 449 kts | 328° |
| 2026-05-05 00:59 | 35.88049 | 68.25362 | 36065 ft | 449 kts | 328° |
| 2026-05-05 01:00 | 35.93534 | 68.21664 | 36073 ft | 449 kts | 328° |
| 2026-05-05 01:00 | 35.98990 | 68.17980 | 36061 ft | 450 kts | 328° |
| 2026-05-05 01:01 | 36.04493 | 68.14260 | 36067 ft | 447 kts | 328° |
| 2026-05-05 01:01 | 36.09933 | 68.10575 | 36060 ft | 447 kts | 328° |
| 2026-05-05 01:02 | 36.15378 | 68.06881 | 36053 ft | 448 kts | 328° |
| 2026-05-05 01:02 | 36.20864 | 68.03152 | 36043 ft | 449 kts | 328° |
| 2026-05-05 01:03 | 36.26338 | 67.99426 | 36041 ft | 449 kts | 328° |
| 2026-05-05 01:03 | 36.31796 | 67.95706 | 36035 ft | 449 kts | 328° |
| 2026-05-05 01:04 | 36.37262 | 67.91974 | 36030 ft | 451 kts | 328° |
| 2026-05-05 01:04 | 36.45517 | 67.86326 | 36012 ft | 451 kts | 328° |
| 2026-05-05 01:05 | 36.51020 | 67.82554 | 36020 ft | 451 kts | 328° |
| 2026-05-05 01:05 | 36.56516 | 67.78780 | 36009 ft | 452 kts | 329° |
| 2026-05-05 01:06 | 36.62040 | 67.74980 | 36007 ft | 453 kts | 328° |
| 2026-05-05 01:06 | 36.67540 | 67.71191 | 36001 ft | 453 kts | 328° |
| 2026-05-05 01:07 | 36.73064 | 67.67383 | 35999 ft | 453 kts | 328° |
| 2026-05-05 01:07 | 36.78562 | 67.63605 | 35980 ft | 453 kts | 328° |
| 2026-05-05 01:08 | 36.84073 | 67.59812 | 35981 ft | 453 kts | 328° |
| 2026-05-05 01:08 | 36.89576 | 67.56018 | 35973 ft | 453 kts | 328° |
| 2026-05-05 01:09 | 36.95087 | 67.52212 | 35969 ft | 452 kts | 328° |
| 2026-05-05 01:09 | 37.00597 | 67.48399 | 35974 ft | 451 kts | 328° |
| 2026-05-05 01:10 | 37.06087 | 67.44595 | 35973 ft | 451 kts | 328° |
| 2026-05-05 01:10 | 37.11591 | 67.40774 | 35969 ft | 451 kts | 328° |
| 2026-05-05 01:11 | 37.17064 | 67.36968 | 35975 ft | 453 kts | 328° |
| 2026-05-05 01:11 | 37.22854 | 67.33793 | 35966 ft | 457 kts | 340° |
| 2026-05-05 01:12 | 37.28886 | 67.31348 | 36208 ft | 453 kts | 334° |
| 2026-05-05 01:12 | 37.31736 | 67.29699 | 36498 ft | 449 kts | 332° |
| 2026-05-05 01:12 | 37.34515 | 67.27992 | 36701 ft | 448 kts | 331° |
| 2026-05-05 01:13 | 37.37313 | 67.26216 | 36809 ft | 449 kts | 330° |
| 2026-05-05 01:13 | 37.40119 | 67.24401 | 36969 ft | 448 kts | 330° |
| 2026-05-05 01:13 | 37.42871 | 67.22605 | 37141 ft | 447 kts | 330° |
| 2026-05-05 01:13 | 37.45606 | 67.20816 | 37341 ft | 445 kts | 330° |
| 2026-05-05 01:14 | 37.48362 | 67.19014 | 37650 ft | 441 kts | 329° |
| 2026-05-05 01:14 | 37.51095 | 67.17227 | 37819 ft | 441 kts | 329° |
| 2026-05-05 01:14 | 37.56565 | 67.13652 | 37883 ft | 445 kts | 330° |
| 2026-05-05 01:15 | 37.62037 | 67.10075 | 37986 ft | 448 kts | 330° |
| 2026-05-05 01:15 | 37.67599 | 67.06430 | 37994 ft | 450 kts | 329° |
| 2026-05-05 01:16 | 37.72877 | 67.02227 | 37996 ft | 448 kts | 324° |
| 2026-05-05 01:16 | 37.78040 | 66.97779 | 37997 ft | 448 kts | 323° |
| 2026-05-05 01:17 | 37.83167 | 66.93297 | 38029 ft | 449 kts | 323° |
| 2026-05-05 01:17 | 37.88303 | 66.88801 | 38021 ft | 448 kts | 323° |
| 2026-05-05 01:18 | 37.93400 | 66.84344 | 38037 ft | 447 kts | 323° |
| 2026-05-05 01:18 | 37.98549 | 66.79838 | 38045 ft | 448 kts | 323° |
| 2026-05-05 01:19 | 38.03643 | 66.75374 | 38036 ft | 448 kts | 323° |
| 2026-05-05 01:19 | 38.08773 | 66.70873 | 38038 ft | 448 kts | 323° |
| 2026-05-05 01:20 | 38.13897 | 66.66369 | 38035 ft | 449 kts | 323° |
| 2026-05-05 01:20 | 38.19043 | 66.61836 | 38026 ft | 450 kts | 323° |
| 2026-05-05 01:21 | 38.24197 | 66.57290 | 38023 ft | 450 kts | 323° |
| 2026-05-05 01:21 | 38.29326 | 66.52759 | 38030 ft | 449 kts | 323° |
| 2026-05-05 01:22 | 38.34452 | 66.48220 | 38016 ft | 449 kts | 323° |
| 2026-05-05 01:22 | 38.39563 | 66.43688 | 37999 ft | 449 kts | 323° |
| 2026-05-05 01:23 | 38.44694 | 66.39130 | 38009 ft | 449 kts | 323° |
| 2026-05-05 01:23 | 38.49836 | 66.34555 | 37996 ft | 451 kts | 323° |
| 2026-05-05 01:24 | 38.54988 | 66.29961 | 37994 ft | 452 kts | 323° |
| 2026-05-05 01:24 | 38.59661 | 66.24692 | 37966 ft | 448 kts | 309° |
| 2026-05-05 01:25 | 38.62994 | 66.17998 | 37991 ft | 445 kts | 294° |
| 2026-05-05 01:25 | 38.64994 | 66.10499 | 37986 ft | 446 kts | 288° |
| 2026-05-05 01:26 | 38.66701 | 66.02923 | 37980 ft | 446 kts | 287° |
| 2026-05-05 01:26 | 38.68398 | 65.95258 | 37988 ft | 446 kts | 287° |
| 2026-05-05 01:27 | 38.70105 | 65.87651 | 37997 ft | 444 kts | 287° |
| 2026-05-05 01:27 | 38.71826 | 65.80036 | 37998 ft | 443 kts | 287° |
| 2026-05-05 01:28 | 38.73538 | 65.72456 | 37987 ft | 443 kts | 287° |
| 2026-05-05 01:28 | 38.75242 | 65.64882 | 37991 ft | 445 kts | 287° |
| 2026-05-05 01:29 | 38.76955 | 65.57237 | 37974 ft | 444 kts | 287° |
| 2026-05-05 01:29 | 38.78643 | 65.49672 | 37981 ft | 442 kts | 287° |
| 2026-05-05 01:30 | 38.80335 | 65.42070 | 37987 ft | 442 kts | 287° |
| 2026-05-05 01:30 | 38.82014 | 65.34498 | 37971 ft | 442 kts | 287° |
| 2026-05-05 01:31 | 38.83689 | 65.26921 | 37972 ft | 442 kts | 287° |
| 2026-05-05 01:31 | 38.85347 | 65.19392 | 37971 ft | 441 kts | 287° |
| 2026-05-05 01:32 | 38.87013 | 65.11804 | 37975 ft | 441 kts | 287° |
| 2026-05-05 01:32 | 38.88674 | 65.04216 | 37988 ft | 441 kts | 287° |
| 2026-05-05 01:33 | 38.90320 | 64.96667 | 37967 ft | 441 kts | 286° |
| 2026-05-05 01:33 | 38.91970 | 64.89068 | 37971 ft | 440 kts | 286° |
| 2026-05-05 01:34 | 38.93609 | 64.81492 | 37972 ft | 440 kts | 286° |
| 2026-05-05 01:34 | 38.95242 | 64.73922 | 37978 ft | 440 kts | 286° |
| 2026-05-05 01:35 | 38.96876 | 64.66323 | 37970 ft | 441 kts | 286° |
| 2026-05-05 01:35 | 38.98501 | 64.58740 | 37969 ft | 441 kts | 286° |
| 2026-05-05 01:36 | 39.00131 | 64.51105 | 37972 ft | 441 kts | 286° |
| 2026-05-05 01:36 | 39.01750 | 64.43493 | 37961 ft | 441 kts | 286° |
| 2026-05-05 01:37 | 39.03352 | 64.35936 | 37963 ft | 441 kts | 286° |
| 2026-05-05 01:37 | 39.04958 | 64.28338 | 37969 ft | 440 kts | 285° |
| 2026-05-05 01:38 | 39.06558 | 64.20735 | 37956 ft | 440 kts | 285° |
| 2026-05-05 01:38 | 39.08165 | 64.13087 | 37956 ft | 440 kts | 286° |
| 2026-05-05 01:39 | 39.09880 | 64.05513 | 37951 ft | 440 kts | 287° |
| 2026-05-05 01:39 | 39.11636 | 63.98009 | 37949 ft | 440 kts | 287° |
| 2026-05-05 01:40 | 39.13390 | 63.90431 | 37945 ft | 439 kts | 287° |
| 2026-05-05 01:40 | 39.15112 | 63.82894 | 37951 ft | 440 kts | 286° |
| 2026-05-05 01:41 | 39.16833 | 63.75315 | 37951 ft | 440 kts | 286° |
| 2026-05-05 01:41 | 39.18544 | 63.67752 | 37936 ft | 441 kts | 286° |
| 2026-05-05 01:42 | 39.20251 | 63.60182 | 37944 ft | 441 kts | 286° |
| 2026-05-05 01:42 | 39.21957 | 63.52595 | 37935 ft | 441 kts | 286° |
| 2026-05-05 01:43 | 39.23664 | 63.44982 | 37944 ft | 441 kts | 286° |
| 2026-05-05 01:43 | 39.25078 | 63.38652 | 37944 ft | 441 kts | 285° |
| 2026-05-05 01:44 | 39.26779 | 63.31014 | 37940 ft | 442 kts | 285° |
| 2026-05-05 01:44 | 39.28461 | 63.23435 | 37943 ft | 442 kts | 285° |
| 2026-05-05 01:45 | 39.30147 | 63.15814 | 37943 ft | 442 kts | 285° |
| 2026-05-05 01:45 | 39.31831 | 63.08176 | 37955 ft | 442 kts | 285° |
| 2026-05-05 01:46 | 39.33515 | 63.00510 | 37951 ft | 442 kts | 285° |
| 2026-05-05 01:46 | 39.35194 | 62.92844 | 37954 ft | 443 kts | 285° |
| 2026-05-05 01:47 | 39.36866 | 62.85177 | 37942 ft | 443 kts | 285° |
| 2026-05-05 01:47 | 39.38533 | 62.77508 | 37952 ft | 443 kts | 285° |
| 2026-05-05 01:48 | 39.40194 | 62.69846 | 37944 ft | 443 kts | 285° |
| 2026-05-05 01:48 | 39.41847 | 62.62188 | 37959 ft | 443 kts | 285° |
| 2026-05-05 01:49 | 39.43497 | 62.54520 | 37963 ft | 443 kts | 285° |
| 2026-05-05 01:49 | 39.45141 | 62.46848 | 37959 ft | 443 kts | 285° |
| 2026-05-05 01:50 | 39.46779 | 62.39183 | 37950 ft | 443 kts | 285° |
| 2026-05-05 01:50 | 39.48416 | 62.31488 | 37951 ft | 443 kts | 285° |
| 2026-05-05 01:51 | 39.50045 | 62.23810 | 37951 ft | 443 kts | 285° |
| 2026-05-05 01:51 | 39.51670 | 62.16120 | 37943 ft | 444 kts | 285° |
| 2026-05-05 01:52 | 39.53299 | 62.08384 | 37949 ft | 444 kts | 284° |
| 2026-05-05 01:52 | 39.54916 | 62.00678 | 37954 ft | 444 kts | 284° |
| 2026-05-05 01:53 | 39.56530 | 61.92960 | 37948 ft | 444 kts | 284° |
| 2026-05-05 01:53 | 39.58143 | 61.85218 | 37955 ft | 445 kts | 284° |
| 2026-05-05 01:54 | 39.59752 | 61.77465 | 37947 ft | 445 kts | 284° |
| 2026-05-05 01:54 | 39.61354 | 61.69716 | 37943 ft | 445 kts | 284° |
| 2026-05-05 01:55 | 39.62951 | 61.61966 | 37953 ft | 445 kts | 284° |
| 2026-05-05 01:55 | 39.64541 | 61.54219 | 37934 ft | 445 kts | 284° |
| 2026-05-05 01:56 | 39.66128 | 61.46457 | 37931 ft | 445 kts | 284° |
| 2026-05-05 01:56 | 39.67709 | 61.38697 | 37928 ft | 445 kts | 284° |
| 2026-05-05 01:57 | 39.69287 | 61.30927 | 37932 ft | 445 kts | 284° |
| 2026-05-05 01:57 | 39.70854 | 61.23176 | 37934 ft | 446 kts | 284° |
| 2026-05-05 01:58 | 39.72428 | 61.15364 | 37925 ft | 446 kts | 284° |
| 2026-05-05 01:58 | 39.73992 | 61.07571 | 37929 ft | 446 kts | 284° |
| 2026-05-05 01:59 | 39.75552 | 60.99769 | 37929 ft | 446 kts | 284° |
| 2026-05-05 01:59 | 39.77116 | 60.91917 | 37908 ft | 446 kts | 283° |
| 2026-05-05 02:00 | 39.78659 | 60.84140 | 37915 ft | 446 kts | 284° |
| 2026-05-05 02:00 | 39.80201 | 60.76340 | 37916 ft | 447 kts | 283° |
| 2026-05-05 02:01 | 39.81749 | 60.68482 | 37899 ft | 446 kts | 283° |
| 2026-05-05 02:01 | 39.83276 | 60.60696 | 37914 ft | 446 kts | 283° |
| 2026-05-05 02:02 | 39.84808 | 60.52853 | 37903 ft | 446 kts | 283° |
| 2026-05-05 02:02 | 39.86323 | 60.45071 | 37898 ft | 446 kts | 283° |
| 2026-05-05 02:03 | 39.87844 | 60.37227 | 37896 ft | 445 kts | 283° |
| 2026-05-05 02:03 | 39.89221 | 60.29388 | 37890 ft | 445 kts | 277° |
| 2026-05-05 02:04 | 39.89611 | 60.21396 | 37896 ft | 444 kts | 272° |
| 2026-05-05 02:04 | 39.89715 | 60.13324 | 37889 ft | 445 kts | 271° |
| 2026-05-05 02:05 | 39.89766 | 60.05255 | 37873 ft | 444 kts | 271° |
| 2026-05-05 02:05 | 39.89821 | 59.97248 | 37877 ft | 444 kts | 271° |
| 2026-05-05 02:06 | 39.89883 | 59.89230 | 37871 ft | 444 kts | 271° |
| 2026-05-05 02:06 | 39.89944 | 59.81180 | 37873 ft | 444 kts | 271° |
| 2026-05-05 02:07 | 39.89999 | 59.73126 | 37870 ft | 444 kts | 271° |
| 2026-05-05 02:07 | 39.90048 | 59.65134 | 37873 ft | 444 kts | 271° |
| 2026-05-05 02:08 | 39.90092 | 59.57074 | 37869 ft | 443 kts | 271° |
| 2026-05-05 02:08 | 39.90129 | 59.49068 | 37872 ft | 442 kts | 271° |
| 2026-05-05 02:09 | 39.90161 | 59.41073 | 37875 ft | 442 kts | 270° |
| 2026-05-05 02:09 | 39.90187 | 59.33038 | 37871 ft | 442 kts | 270° |
| 2026-05-05 02:10 | 39.90191 | 59.25042 | 37858 ft | 441 kts | 270° |
| 2026-05-05 02:10 | 39.90186 | 59.17070 | 37862 ft | 441 kts | 270° |
| 2026-05-05 02:11 | 39.90177 | 59.09079 | 37873 ft | 441 kts | 270° |
| 2026-05-05 02:11 | 39.90155 | 59.01116 | 37858 ft | 441 kts | 270° |
| 2026-05-05 02:12 | 39.90103 | 58.89193 | 37868 ft | 439 kts | 270° |
| 2026-05-05 02:13 | 39.90063 | 58.81232 | 37862 ft | 438 kts | 270° |
| 2026-05-05 02:13 | 39.90018 | 58.73306 | 37863 ft | 438 kts | 270° |
| 2026-05-05 02:14 | 39.89967 | 58.65388 | 37866 ft | 438 kts | 270° |
| 2026-05-05 02:14 | 39.89911 | 58.57411 | 37869 ft | 438 kts | 270° |
| 2026-05-05 02:15 | 39.89850 | 58.49481 | 37865 ft | 438 kts | 270° |
| 2026-05-05 02:15 | 39.89784 | 58.41581 | 37865 ft | 437 kts | 269° |
| 2026-05-05 02:16 | 39.89712 | 58.33636 | 37866 ft | 436 kts | 269° |
| 2026-05-05 02:16 | 39.89635 | 58.25787 | 37863 ft | 436 kts | 269° |
| 2026-05-05 02:17 | 39.89553 | 58.17893 | 37865 ft | 435 kts | 269° |
| 2026-05-05 02:17 | 39.89478 | 58.10053 | 37859 ft | 433 kts | 269° |
| 2026-05-05 02:18 | 39.89417 | 58.02199 | 37859 ft | 433 kts | 269° |
| 2026-05-05 02:18 | 39.89352 | 57.94349 | 37862 ft | 433 kts | 269° |
| 2026-05-05 02:19 | 39.89279 | 57.86528 | 37867 ft | 432 kts | 269° |
| 2026-05-05 02:19 | 39.89198 | 57.78706 | 37863 ft | 431 kts | 269° |
| 2026-05-05 02:20 | 39.89113 | 57.70936 | 37861 ft | 431 kts | 269° |
| 2026-05-05 02:20 | 39.89022 | 57.63101 | 37858 ft | 431 kts | 269° |
| 2026-05-05 02:21 | 39.88926 | 57.55291 | 37865 ft | 431 kts | 269° |
| 2026-05-05 02:21 | 39.88825 | 57.47536 | 37865 ft | 431 kts | 269° |
| 2026-05-05 02:22 | 39.88719 | 57.39723 | 37864 ft | 431 kts | 269° |
| 2026-05-05 02:22 | 39.88607 | 57.31898 | 37864 ft | 431 kts | 268° |
| 2026-05-05 02:23 | 39.88490 | 57.24106 | 37860 ft | 431 kts | 268° |
| 2026-05-05 02:23 | 39.88368 | 57.16309 | 37852 ft | 432 kts | 268° |
| 2026-05-05 02:24 | 39.88241 | 57.08473 | 37854 ft | 432 kts | 268° |
| 2026-05-05 02:24 | 39.88107 | 57.00627 | 37854 ft | 432 kts | 268° |
| 2026-05-05 02:25 | 39.87970 | 56.92851 | 37853 ft | 432 kts | 268° |
| 2026-05-05 02:25 | 39.87826 | 56.85009 | 37859 ft | 432 kts | 268° |
| 2026-05-05 02:26 | 39.87678 | 56.77201 | 37850 ft | 432 kts | 268° |
| 2026-05-05 02:26 | 39.87524 | 56.69357 | 37854 ft | 432 kts | 268° |
| 2026-05-05 02:27 | 39.87366 | 56.61578 | 37855 ft | 432 kts | 268° |
| 2026-05-05 02:27 | 39.87201 | 56.53727 | 37862 ft | 432 kts | 267° |
| 2026-05-05 02:28 | 39.87033 | 56.45968 | 37846 ft | 430 kts | 267° |
| 2026-05-05 02:28 | 39.86858 | 56.38168 | 37849 ft | 430 kts | 267° |
| 2026-05-05 02:29 | 39.86680 | 56.30411 | 37844 ft | 430 kts | 267° |
| 2026-05-05 02:29 | 39.86495 | 56.22625 | 37847 ft | 430 kts | 267° |
| 2026-05-05 02:30 | 39.86311 | 56.14824 | 37840 ft | 430 kts | 267° |
| 2026-05-05 02:30 | 39.86156 | 56.08370 | 37841 ft | 429 kts | 267° |
| 2026-05-05 02:31 | 39.85933 | 55.99317 | 37841 ft | 429 kts | 267° |
| 2026-05-05 02:31 | 39.85769 | 55.92835 | 37840 ft | 429 kts | 267° |
| 2026-05-05 02:32 | 39.85567 | 55.85079 | 37840 ft | 429 kts | 267° |
| 2026-05-05 02:32 | 39.85361 | 55.77363 | 37841 ft | 429 kts | 267° |
| 2026-05-05 02:33 | 39.85148 | 55.69580 | 37833 ft | 429 kts | 267° |
| 2026-05-05 02:33 | 39.84931 | 55.61858 | 37833 ft | 429 kts | 266° |
| 2026-05-05 02:34 | 39.84709 | 55.54111 | 37836 ft | 429 kts | 266° |
| 2026-05-05 02:34 | 39.84482 | 55.46373 | 37836 ft | 429 kts | 266° |
| 2026-05-05 02:35 | 39.84249 | 55.38602 | 37839 ft | 428 kts | 266° |
| 2026-05-05 02:35 | 39.84011 | 55.30872 | 37836 ft | 428 kts | 266° |
| 2026-05-05 02:36 | 39.83770 | 55.23167 | 37840 ft | 428 kts | 266° |
| 2026-05-05 02:36 | 39.83521 | 55.15414 | 37840 ft | 428 kts | 266° |
| 2026-05-05 02:37 | 39.83269 | 55.07699 | 37844 ft | 428 kts | 266° |
| 2026-05-05 02:37 | 39.83023 | 54.99919 | 37842 ft | 427 kts | 266° |
| 2026-05-05 02:38 | 39.82806 | 54.92234 | 37845 ft | 427 kts | 266° |
| 2026-05-05 02:38 | 39.82584 | 54.84482 | 37846 ft | 427 kts | 266° |
| 2026-05-05 02:39 | 39.82613 | 54.76766 | 37851 ft | 429 kts | 274° |
| 2026-05-05 02:39 | 39.83824 | 54.69150 | 37848 ft | 432 kts | 281° |
| 2026-05-05 02:40 | 39.85418 | 54.61555 | 37850 ft | 433 kts | 282° |
| 2026-05-05 02:40 | 39.87043 | 54.54075 | 37847 ft | 432 kts | 282° |
| 2026-05-05 02:41 | 39.88655 | 54.46557 | 37845 ft | 432 kts | 282° |
| 2026-05-05 02:41 | 39.90256 | 54.39002 | 37833 ft | 432 kts | 281° |
| 2026-05-05 02:42 | 39.91827 | 54.31445 | 37834 ft | 432 kts | 281° |
| 2026-05-05 02:42 | 39.93388 | 54.23910 | 37837 ft | 432 kts | 281° |
| 2026-05-05 02:43 | 39.94957 | 54.16322 | 37825 ft | 432 kts | 281° |
| 2026-05-05 02:43 | 39.96514 | 54.08783 | 37838 ft | 432 kts | 281° |
| 2026-05-05 02:44 | 39.98068 | 54.01232 | 37830 ft | 432 kts | 281° |
| 2026-05-05 02:44 | 39.99620 | 53.93663 | 37826 ft | 432 kts | 281° |
| 2026-05-05 02:45 | 40.01169 | 53.86076 | 37837 ft | 431 kts | 281° |
| 2026-05-05 02:45 | 40.02696 | 53.78571 | 37833 ft | 431 kts | 281° |
| 2026-05-05 02:46 | 40.04240 | 53.70958 | 37837 ft | 431 kts | 280° |
| 2026-05-05 02:46 | 40.05761 | 53.63427 | 37838 ft | 432 kts | 280° |
| 2026-05-05 02:47 | 40.07290 | 53.55832 | 37851 ft | 432 kts | 280° |
| 2026-05-05 02:47 | 40.08815 | 53.48227 | 37856 ft | 432 kts | 279° |
| 2026-05-05 02:48 | 40.10327 | 53.40657 | 37859 ft | 434 kts | 279° |
| 2026-05-05 02:48 | 40.11857 | 53.32965 | 37861 ft | 436 kts | 279° |
| 2026-05-05 02:49 | 40.13371 | 53.25332 | 37866 ft | 436 kts | 279° |
| 2026-05-05 02:49 | 40.14889 | 53.17650 | 37867 ft | 436 kts | 279° |
| 2026-05-05 02:50 | 40.16402 | 53.09963 | 37867 ft | 436 kts | 279° |
| 2026-05-05 02:50 | 40.17905 | 53.02297 | 37880 ft | 437 kts | 279° |
| 2026-05-05 02:51 | 40.19410 | 52.94587 | 37874 ft | 438 kts | 279° |
| 2026-05-05 02:51 | 40.20916 | 52.86850 | 37878 ft | 438 kts | 279° |
| 2026-05-05 02:52 | 40.22409 | 52.79149 | 37883 ft | 438 kts | 279° |
| 2026-05-05 02:52 | 40.23901 | 52.71420 | 37884 ft | 438 kts | 279° |
| 2026-05-05 02:53 | 40.25393 | 52.63662 | 37884 ft | 440 kts | 279° |
| 2026-05-05 02:53 | 40.26888 | 52.55868 | 37886 ft | 440 kts | 279° |
| 2026-05-05 02:54 | 40.28377 | 52.48092 | 37887 ft | 440 kts | 279° |
| 2026-05-05 02:54 | 40.29853 | 52.40350 | 37889 ft | 440 kts | 279° |
| 2026-05-05 02:55 | 40.31330 | 52.32571 | 37905 ft | 441 kts | 279° |
| 2026-05-05 02:55 | 40.32804 | 52.24779 | 37891 ft | 441 kts | 279° |
| 2026-05-05 02:56 | 40.34282 | 52.16935 | 37895 ft | 441 kts | 279° |
| 2026-05-05 02:56 | 40.35749 | 52.09119 | 37895 ft | 441 kts | 279° |
| 2026-05-05 02:57 | 40.37203 | 52.01338 | 37895 ft | 441 kts | 278° |
| 2026-05-05 02:57 | 40.38658 | 51.93520 | 37895 ft | 441 kts | 278° |
| 2026-05-05 02:58 | 40.40108 | 51.85701 | 37898 ft | 441 kts | 278° |
| 2026-05-05 02:58 | 40.41551 | 51.77887 | 37898 ft | 441 kts | 278° |
| 2026-05-05 02:59 | 40.42997 | 51.70025 | 37897 ft | 441 kts | 278° |
| 2026-05-05 02:59 | 40.44432 | 51.62188 | 37891 ft | 441 kts | 278° |
| 2026-05-05 03:00 | 40.45859 | 51.54361 | 37893 ft | 443 kts | 278° |
| 2026-05-05 03:00 | 40.47307 | 51.46494 | 37901 ft | 444 kts | 279° |
| 2026-05-05 03:01 | 40.48899 | 51.38690 | 37900 ft | 444 kts | 280° |
| 2026-05-05 03:01 | 40.50531 | 51.30867 | 37898 ft | 444 kts | 280° |
| 2026-05-05 03:02 | 40.52145 | 51.22997 | 37908 ft | 446 kts | 279° |
| 2026-05-05 03:02 | 40.53743 | 51.15089 | 37919 ft | 447 kts | 279° |
| 2026-05-05 03:03 | 40.55321 | 51.07238 | 37908 ft | 446 kts | 279° |
| 2026-05-05 03:03 | 40.56910 | 50.99301 | 37914 ft | 446 kts | 279° |
| 2026-05-05 03:04 | 40.58480 | 50.91426 | 37916 ft | 446 kts | 279° |
| 2026-05-05 03:04 | 40.60050 | 50.83518 | 37908 ft | 448 kts | 279° |
| 2026-05-05 03:05 | 40.61622 | 50.75577 | 37904 ft | 448 kts | 279° |
| 2026-05-05 03:05 | 40.63183 | 50.67660 | 37906 ft | 448 kts | 279° |
| 2026-05-05 03:06 | 40.64746 | 50.59703 | 37898 ft | 448 kts | 279° |
| 2026-05-05 03:06 | 40.66297 | 50.51775 | 37894 ft | 448 kts | 278° |
| 2026-05-05 03:07 | 40.67850 | 50.43802 | 37895 ft | 448 kts | 278° |
| 2026-05-05 03:07 | 40.69392 | 50.35867 | 37893 ft | 448 kts | 278° |
| 2026-05-05 03:08 | 40.70927 | 50.27892 | 37901 ft | 448 kts | 278° |
| 2026-05-05 03:08 | 40.72449 | 50.19950 | 37903 ft | 449 kts | 278° |
| 2026-05-05 03:09 | 40.73978 | 50.11947 | 37898 ft | 450 kts | 278° |
| 2026-05-05 03:09 | 40.75498 | 50.03969 | 37908 ft | 450 kts | 278° |
| 2026-05-05 03:10 | 40.77017 | 49.95967 | 37905 ft | 450 kts | 278° |
| 2026-05-05 03:10 | 40.78535 | 49.87938 | 37928 ft | 451 kts | 278° |
| 2026-05-05 03:11 | 40.80047 | 49.79891 | 37911 ft | 454 kts | 278° |
| 2026-05-05 03:11 | 40.81568 | 49.71777 | 37912 ft | 454 kts | 278° |
| 2026-05-05 03:12 | 40.83080 | 49.63679 | 37914 ft | 454 kts | 278° |
| 2026-05-05 03:12 | 40.84584 | 49.55588 | 37913 ft | 454 kts | 278° |
| 2026-05-05 03:13 | 40.86084 | 49.47480 | 37919 ft | 456 kts | 278° |
| 2026-05-05 03:13 | 40.87587 | 49.39319 | 37917 ft | 456 kts | 278° |
| 2026-05-05 03:14 | 40.89074 | 49.31179 | 37919 ft | 456 kts | 277° |
| 2026-05-05 03:14 | 40.90470 | 49.23009 | 37920 ft | 455 kts | 277° |
| 2026-05-05 03:15 | 40.91831 | 49.14836 | 37932 ft | 454 kts | 277° |
| 2026-05-05 03:15 | 40.93189 | 49.06722 | 37919 ft | 453 kts | 277° |
| 2026-05-05 03:16 | 40.94545 | 48.98630 | 37916 ft | 452 kts | 277° |
| 2026-05-05 03:16 | 40.95904 | 48.90502 | 37919 ft | 452 kts | 277° |
| 2026-05-05 03:17 | 40.97037 | 48.83702 | 37906 ft | 452 kts | 277° |
| 2026-05-05 03:17 | 40.98604 | 48.74260 | 37893 ft | 451 kts | 276° |
| 2026-05-05 03:18 | 40.99719 | 48.67489 | 37903 ft | 451 kts | 276° |
| 2026-05-05 03:18 | 41.01049 | 48.59385 | 37894 ft | 452 kts | 276° |
| 2026-05-05 03:19 | 41.03045 | 48.47189 | 37885 ft | 451 kts | 276° |
| 2026-05-05 03:19 | 41.04369 | 48.39033 | 37885 ft | 453 kts | 275° |
| 2026-05-05 03:20 | 41.05677 | 48.30899 | 37879 ft | 452 kts | 275° |
| 2026-05-05 03:20 | 41.06985 | 48.22751 | 37872 ft | 451 kts | 275° |
| 2026-05-05 03:21 | 41.08288 | 48.14601 | 37890 ft | 453 kts | 275° |
| 2026-05-05 03:21 | 41.09592 | 48.06420 | 37875 ft | 453 kts | 276° |
| 2026-05-05 03:22 | 41.10868 | 47.98206 | 37900 ft | 457 kts | 275° |
| 2026-05-05 03:22 | 41.12174 | 47.90005 | 37887 ft | 453 kts | 275° |
| 2026-05-05 03:23 | 41.13466 | 47.81863 | 37886 ft | 453 kts | 275° |
| 2026-05-05 03:23 | 41.14752 | 47.73664 | 37882 ft | 453 kts | 275° |
| 2026-05-05 03:24 | 41.16026 | 47.65469 | 37889 ft | 453 kts | 275° |
| 2026-05-05 03:24 | 41.17287 | 47.57307 | 37897 ft | 453 kts | 275° |
| 2026-05-05 03:25 | 41.18547 | 47.49120 | 37911 ft | 453 kts | 275° |
| 2026-05-05 03:25 | 41.19811 | 47.40872 | 37921 ft | 454 kts | 275° |
| 2026-05-05 03:26 | 41.21060 | 47.32692 | 37937 ft | 452 kts | 274° |
| 2026-05-05 03:26 | 41.22300 | 47.24512 | 37925 ft | 453 kts | 274° |
| 2026-05-05 03:27 | 41.23541 | 47.16281 | 37933 ft | 453 kts | 274° |
| 2026-05-05 03:27 | 41.24769 | 47.08099 | 37936 ft | 453 kts | 274° |
| 2026-05-05 03:28 | 41.25994 | 46.99895 | 37942 ft | 453 kts | 274° |
| 2026-05-05 03:28 | 41.27215 | 46.91669 | 37943 ft | 456 kts | 274° |
| 2026-05-05 03:29 | 41.28442 | 46.83357 | 37942 ft | 458 kts | 274° |
| 2026-05-05 03:29 | 41.29665 | 46.75049 | 37951 ft | 458 kts | 274° |
| 2026-05-05 03:30 | 41.30861 | 46.66719 | 37950 ft | 461 kts | 274° |
| 2026-05-05 03:30 | 41.32028 | 46.58306 | 37960 ft | 462 kts | 274° |
| 2026-05-05 03:31 | 41.33199 | 46.49840 | 37950 ft | 466 kts | 274° |
| 2026-05-05 03:31 | 41.34371 | 46.41368 | 37945 ft | 467 kts | 274° |
| 2026-05-05 03:32 | 41.35543 | 46.32878 | 37939 ft | 467 kts | 274° |
| 2026-05-05 03:32 | 41.36706 | 46.24405 | 37941 ft | 467 kts | 274° |
| 2026-05-05 03:33 | 41.37868 | 46.15870 | 37940 ft | 469 kts | 274° |
| 2026-05-05 03:33 | 41.39022 | 46.07347 | 37933 ft | 469 kts | 274° |
| 2026-05-05 03:34 | 41.40181 | 45.98746 | 37932 ft | 470 kts | 274° |
| 2026-05-05 03:34 | 41.41329 | 45.90175 | 37936 ft | 470 kts | 274° |
| 2026-05-05 03:35 | 41.42467 | 45.81628 | 37925 ft | 470 kts | 274° |
| 2026-05-05 03:35 | 41.43606 | 45.73011 | 37924 ft | 472 kts | 274° |
| 2026-05-05 03:36 | 41.44738 | 45.64408 | 37922 ft | 472 kts | 274° |
| 2026-05-05 03:36 | 41.45864 | 45.55799 | 37915 ft | 472 kts | 274° |
| 2026-05-05 03:37 | 41.46982 | 45.47195 | 37953 ft | 472 kts | 274° |
| 2026-05-05 03:37 | 41.48093 | 45.38583 | 37918 ft | 474 kts | 274° |
| 2026-05-05 03:38 | 41.49073 | 45.29849 | 37906 ft | 472 kts | 271° |
| 2026-05-05 03:38 | 41.49719 | 45.21163 | 37909 ft | 472 kts | 270° |
| 2026-05-05 03:39 | 41.50349 | 45.12440 | 37909 ft | 472 kts | 271° |
| 2026-05-05 03:39 | 41.51023 | 45.03726 | 37922 ft | 472 kts | 271° |
| 2026-05-05 03:40 | 41.51717 | 44.95004 | 37915 ft | 474 kts | 271° |
| 2026-05-05 03:40 | 41.52408 | 44.86313 | 37913 ft | 474 kts | 271° |
| 2026-05-05 03:41 | 41.53094 | 44.77579 | 37917 ft | 474 kts | 271° |
| 2026-05-05 03:41 | 41.53773 | 44.68817 | 37919 ft | 474 kts | 271° |
| 2026-05-05 03:42 | 41.54443 | 44.60081 | 37928 ft | 473 kts | 271° |
| 2026-05-05 03:42 | 41.55106 | 44.51344 | 37935 ft | 473 kts | 271° |
| 2026-05-05 03:43 | 41.55765 | 44.42568 | 37914 ft | 473 kts | 271° |
| 2026-05-05 03:43 | 41.56411 | 44.33875 | 37918 ft | 473 kts | 271° |
| 2026-05-05 03:44 | 41.57057 | 44.25109 | 37915 ft | 473 kts | 271° |
| 2026-05-05 03:44 | 41.57717 | 44.16351 | 37920 ft | 475 kts | 271° |
| 2026-05-05 03:45 | 41.58414 | 44.07539 | 37917 ft | 476 kts | 271° |
| 2026-05-05 03:45 | 41.59098 | 43.98816 | 37917 ft | 476 kts | 271° |
| 2026-05-05 03:46 | 41.59777 | 43.89996 | 37913 ft | 475 kts | 271° |
| 2026-05-05 03:46 | 41.60444 | 43.81191 | 37923 ft | 476 kts | 271° |
| 2026-05-05 03:47 | 41.61103 | 43.72394 | 37917 ft | 479 kts | 271° |
| 2026-05-05 03:47 | 41.61760 | 43.63556 | 37913 ft | 479 kts | 271° |
| 2026-05-05 03:48 | 41.62410 | 43.54714 | 37911 ft | 479 kts | 271° |
| 2026-05-05 03:48 | 41.63057 | 43.45851 | 37916 ft | 479 kts | 271° |
| 2026-05-05 03:49 | 41.63699 | 43.36962 | 37913 ft | 480 kts | 271° |
| 2026-05-05 03:49 | 41.64329 | 43.28107 | 37911 ft | 482 kts | 271° |
| 2026-05-05 03:50 | 41.64967 | 43.19124 | 37918 ft | 482 kts | 271° |
| 2026-05-05 03:50 | 41.65592 | 43.10233 | 37918 ft | 483 kts | 271° |
| 2026-05-05 03:51 | 41.66213 | 43.01280 | 37934 ft | 484 kts | 271° |
| 2026-05-05 03:51 | 41.66821 | 42.92310 | 37909 ft | 487 kts | 271° |
| 2026-05-05 03:52 | 41.66964 | 42.83279 | 37912 ft | 483 kts | 262° |
| 2026-05-05 03:52 | 41.66345 | 42.74347 | 37915 ft | 482 kts | 260° |
| 2026-05-05 03:53 | 41.65595 | 42.65432 | 37912 ft | 482 kts | 260° |
| 2026-05-05 03:53 | 41.64831 | 42.56576 | 37913 ft | 482 kts | 260° |
| 2026-05-05 03:54 | 41.64068 | 42.47640 | 37910 ft | 482 kts | 260° |
| 2026-05-05 03:54 | 41.63307 | 42.38739 | 37907 ft | 483 kts | 260° |
| 2026-05-05 03:55 | 41.62543 | 42.29841 | 37912 ft | 483 kts | 260° |
| 2026-05-05 03:55 | 41.61771 | 42.20932 | 37916 ft | 483 kts | 260° |
| 2026-05-05 03:56 | 41.60988 | 42.11970 | 37923 ft | 483 kts | 260° |
| 2026-05-05 03:56 | 41.60203 | 42.03091 | 37929 ft | 483 kts | 260° |
| 2026-05-05 03:57 | 41.59408 | 41.94179 | 37935 ft | 483 kts | 260° |
| 2026-05-05 03:57 | 41.58605 | 41.85256 | 37938 ft | 484 kts | 260° |
| 2026-05-05 03:58 | 41.57795 | 41.76341 | 37938 ft | 484 kts | 260° |
| 2026-05-05 03:58 | 41.56981 | 41.67442 | 37944 ft | 484 kts | 260° |
| 2026-05-05 03:59 | 41.56155 | 41.58499 | 37936 ft | 484 kts | 260° |
| 2026-05-05 03:59 | 41.55326 | 41.49598 | 37943 ft | 484 kts | 260° |
| 2026-05-05 04:00 | 41.55173 | 41.40592 | 37949 ft | 488 kts | 270° |
| 2026-05-05 04:00 | 41.55627 | 41.31485 | 37945 ft | 491 kts | 271° |
| 2026-05-05 04:01 | 41.56168 | 41.22444 | 37945 ft | 491 kts | 271° |
| 2026-05-05 04:01 | 41.56705 | 41.13340 | 37944 ft | 491 kts | 271° |
| 2026-05-05 04:02 | 41.57217 | 41.04255 | 37943 ft | 491 kts | 271° |
| 2026-05-05 04:02 | 41.57716 | 40.95133 | 37936 ft | 492 kts | 271° |
| 2026-05-05 04:03 | 41.58125 | 40.87558 | 37948 ft | 492 kts | 271° |
| 2026-05-05 04:03 | 41.58613 | 40.78387 | 37932 ft | 492 kts | 271° |
| 2026-05-05 04:04 | 41.59092 | 40.69277 | 37942 ft | 493 kts | 271° |
| 2026-05-05 04:04 | 41.59566 | 40.60125 | 37954 ft | 493 kts | 271° |
| 2026-05-05 04:05 | 41.60029 | 40.51018 | 37947 ft | 495 kts | 271° |
| 2026-05-05 04:05 | 41.60489 | 40.41844 | 37947 ft | 495 kts | 271° |
| 2026-05-05 04:06 | 41.60943 | 40.32644 | 37953 ft | 495 kts | 271° |
| 2026-05-05 04:06 | 41.61388 | 40.23481 | 37950 ft | 495 kts | 271° |
| 2026-05-05 04:07 | 41.61825 | 40.14326 | 37955 ft | 495 kts | 271° |
| 2026-05-05 04:07 | 41.62256 | 40.05136 | 37949 ft | 495 kts | 271° |
| 2026-05-05 04:08 | 41.62680 | 39.95952 | 37947 ft | 495 kts | 271° |
| 2026-05-05 04:08 | 41.63096 | 39.86773 | 37947 ft | 495 kts | 271° |
| 2026-05-05 04:09 | 41.63505 | 39.77600 | 37958 ft | 495 kts | 271° |
| 2026-05-05 04:09 | 41.63908 | 39.68370 | 37951 ft | 496 kts | 271° |
| 2026-05-05 04:10 | 41.64303 | 39.59166 | 37949 ft | 496 kts | 271° |
| 2026-05-05 04:10 | 41.64694 | 39.49959 | 37955 ft | 495 kts | 271° |
| 2026-05-05 04:11 | 41.65070 | 39.40810 | 37952 ft | 495 kts | 271° |
| 2026-05-05 04:11 | 41.65440 | 39.31610 | 37952 ft | 496 kts | 271° |
| 2026-05-05 04:12 | 41.65805 | 39.22385 | 37952 ft | 496 kts | 271° |
| 2026-05-05 04:12 | 41.66163 | 39.13161 | 37954 ft | 496 kts | 271° |
| 2026-05-05 04:13 | 41.66513 | 39.03939 | 37956 ft | 496 kts | 271° |
| 2026-05-05 04:13 | 41.66855 | 38.94742 | 37957 ft | 497 kts | 271° |
| 2026-05-05 04:14 | 41.67182 | 38.85492 | 37956 ft | 499 kts | 271° |
| 2026-05-05 04:14 | 41.67511 | 38.76270 | 37957 ft | 499 kts | 271° |
| 2026-05-05 04:15 | 41.67841 | 38.66961 | 37957 ft | 499 kts | 271° |
| 2026-05-05 04:15 | 41.68160 | 38.57660 | 37956 ft | 499 kts | 271° |
| 2026-05-05 04:16 | 41.68460 | 38.48407 | 37960 ft | 500 kts | 271° |
| 2026-05-05 04:16 | 41.68760 | 38.39104 | 37965 ft | 501 kts | 271° |
| 2026-05-05 04:17 | 41.69058 | 38.29829 | 37965 ft | 501 kts | 271° |
| 2026-05-05 04:17 | 41.69348 | 38.20491 | 37966 ft | 501 kts | 271° |
| 2026-05-05 04:18 | 41.69626 | 38.11208 | 37967 ft | 501 kts | 271° |
| 2026-05-05 04:18 | 41.69891 | 38.01804 | 37971 ft | 503 kts | 271° |
| 2026-05-05 04:19 | 41.70155 | 37.92516 | 37967 ft | 503 kts | 271° |
| 2026-05-05 04:19 | 41.70419 | 37.83129 | 37980 ft | 503 kts | 271° |
| 2026-05-05 04:20 | 41.70671 | 37.73791 | 37983 ft | 503 kts | 271° |
| 2026-05-05 04:20 | 41.70913 | 37.64427 | 37983 ft | 504 kts | 270° |
| 2026-05-05 04:21 | 41.71145 | 37.55075 | 37983 ft | 504 kts | 271° |
| 2026-05-05 04:21 | 41.71372 | 37.45686 | 37982 ft | 504 kts | 270° |
| 2026-05-05 04:22 | 41.71590 | 37.36360 | 37985 ft | 504 kts | 270° |
| 2026-05-05 04:22 | 41.71800 | 37.26953 | 37971 ft | 504 kts | 270° |
| 2026-05-05 04:23 | 41.72002 | 37.17564 | 37974 ft | 504 kts | 270° |
| 2026-05-05 04:23 | 41.72199 | 37.08236 | 37979 ft | 504 kts | 270° |
| 2026-05-05 04:24 | 41.72390 | 36.98828 | 37972 ft | 504 kts | 270° |
| 2026-05-05 04:25 | 41.72656 | 36.84784 | 37978 ft | 504 kts | 270° |
| 2026-05-05 04:25 | 41.72825 | 36.75403 | 37969 ft | 504 kts | 270° |
| 2026-05-05 04:26 | 41.72989 | 36.66005 | 37981 ft | 504 kts | 270° |
| 2026-05-05 04:26 | 41.73143 | 36.56652 | 37976 ft | 504 kts | 270° |
| 2026-05-05 04:27 | 41.73290 | 36.47267 | 37974 ft | 504 kts | 270° |
| 2026-05-05 04:27 | 41.73427 | 36.37898 | 37975 ft | 504 kts | 271° |
| 2026-05-05 04:28 | 41.73559 | 36.28529 | 37973 ft | 504 kts | 271° |
| 2026-05-05 04:28 | 41.73683 | 36.19099 | 37974 ft | 504 kts | 270° |
| 2026-05-05 04:29 | 41.73799 | 36.09749 | 37976 ft | 504 kts | 270° |
| 2026-05-05 04:29 | 41.73907 | 36.00373 | 37974 ft | 504 kts | 270° |
| 2026-05-05 04:30 | 41.74009 | 35.90946 | 37973 ft | 503 kts | 270° |
| 2026-05-05 04:30 | 41.74101 | 35.81602 | 37974 ft | 503 kts | 270° |
| 2026-05-05 04:31 | 41.74186 | 35.72248 | 37974 ft | 503 kts | 270° |
| 2026-05-05 04:31 | 41.74262 | 35.62882 | 37971 ft | 503 kts | 270° |
| 2026-05-05 04:32 | 41.74326 | 35.53548 | 37986 ft | 503 kts | 271° |
| 2026-05-05 04:32 | 41.74393 | 35.44210 | 37975 ft | 503 kts | 271° |
| 2026-05-05 04:33 | 41.74448 | 35.34800 | 37984 ft | 502 kts | 271° |
| 2026-05-05 04:33 | 41.74493 | 35.25481 | 37975 ft | 502 kts | 271° |
| 2026-05-05 04:34 | 41.74536 | 35.16090 | 37983 ft | 503 kts | 271° |
| 2026-05-05 04:34 | 41.74570 | 35.06765 | 37991 ft | 504 kts | 271° |
| 2026-05-05 04:35 | 41.74595 | 34.97407 | 37985 ft | 504 kts | 271° |
| 2026-05-05 04:35 | 41.74612 | 34.88020 | 37989 ft | 503 kts | 270° |
| 2026-05-05 04:36 | 41.74621 | 34.78592 | 37984 ft | 504 kts | 271° |
| 2026-05-05 04:36 | 41.74612 | 34.69195 | 37977 ft | 506 kts | 270° |
| 2026-05-05 04:37 | 41.74609 | 34.59811 | 38140 ft | 506 kts | 270° |
| 2026-05-05 04:37 | 41.74608 | 34.55100 | 38410 ft | 504 kts | 270° |
| 2026-05-05 04:37 | 41.74602 | 34.50411 | 38658 ft | 502 kts | 270° |
| 2026-05-05 04:37 | 41.74593 | 34.45762 | 38827 ft | 501 kts | 270° |
| 2026-05-05 04:38 | 41.74581 | 34.41089 | 38961 ft | 501 kts | 270° |
| 2026-05-05 04:38 | 41.74551 | 34.31758 | 39110 ft | 504 kts | 270° |
| 2026-05-05 04:38 | 41.74532 | 34.27064 | 39246 ft | 503 kts | 270° |
| 2026-05-05 04:39 | 41.74512 | 34.22363 | 39385 ft | 502 kts | 270° |
| 2026-05-05 04:39 | 41.74490 | 34.17717 | 39492 ft | 502 kts | 270° |
| 2026-05-05 04:39 | 41.74467 | 34.13034 | 39584 ft | 502 kts | 270° |
| 2026-05-05 04:39 | 41.74441 | 34.08304 | 39703 ft | 502 kts | 270° |
| 2026-05-05 04:40 | 41.74414 | 34.03637 | 39801 ft | 502 kts | 270° |
| 2026-05-05 04:40 | 41.74385 | 33.99000 | 39914 ft | 501 kts | 270° |
| 2026-05-05 04:40 | 41.74353 | 33.94314 | 40001 ft | 502 kts | 270° |
| 2026-05-05 04:41 | 41.74286 | 33.84986 | 40010 ft | 502 kts | 270° |
| 2026-05-05 04:41 | 41.74210 | 33.75617 | 40009 ft | 502 kts | 270° |
| 2026-05-05 04:42 | 41.74127 | 33.66285 | 40009 ft | 502 kts | 270° |
| 2026-05-05 04:42 | 41.74034 | 33.56925 | 39995 ft | 501 kts | 270° |
| 2026-05-05 04:43 | 41.73933 | 33.47668 | 40006 ft | 499 kts | 270° |
| 2026-05-05 04:43 | 41.73831 | 33.38398 | 40005 ft | 499 kts | 270° |
| 2026-05-05 04:44 | 41.73721 | 33.29129 | 39995 ft | 499 kts | 270° |
| 2026-05-05 04:44 | 41.73601 | 33.19796 | 39998 ft | 499 kts | 270° |
| 2026-05-05 04:45 | 41.73474 | 33.10546 | 39995 ft | 499 kts | 270° |
| 2026-05-05 04:45 | 41.74010 | 33.01334 | 39994 ft | 496 kts | 284° |
| 2026-05-05 04:46 | 41.75930 | 32.92435 | 39993 ft | 495 kts | 289° |
| 2026-05-05 04:46 | 41.78077 | 32.83720 | 39989 ft | 495 kts | 290° |
| 2026-05-05 04:47 | 41.80271 | 32.74914 | 39990 ft | 495 kts | 290° |
| 2026-05-05 04:47 | 41.82421 | 32.66166 | 39987 ft | 495 kts | 290° |
| 2026-05-05 04:48 | 41.84538 | 32.57423 | 39986 ft | 495 kts | 289° |
| 2026-05-05 04:48 | 41.86652 | 32.48644 | 39980 ft | 495 kts | 289° |
| 2026-05-05 04:49 | 41.88767 | 32.39821 | 39985 ft | 495 kts | 289° |
| 2026-05-05 04:49 | 41.90873 | 32.31000 | 39988 ft | 495 kts | 289° |
| 2026-05-05 04:50 | 41.92980 | 32.22229 | 39985 ft | 495 kts | 289° |
| 2026-05-05 04:50 | 41.95081 | 32.13432 | 39989 ft | 495 kts | 289° |
| 2026-05-05 04:51 | 41.96817 | 32.06073 | 39989 ft | 495 kts | 289° |
| 2026-05-05 04:51 | 41.98891 | 31.97258 | 39988 ft | 495 kts | 289° |
| 2026-05-05 04:52 | 42.01300 | 31.86992 | 39979 ft | 495 kts | 289° |
| 2026-05-05 04:52 | 42.03031 | 31.79622 | 39986 ft | 496 kts | 289° |
| 2026-05-05 04:53 | 42.05094 | 31.70781 | 39992 ft | 496 kts | 289° |
| 2026-05-05 04:53 | 42.07159 | 31.61899 | 39990 ft | 496 kts | 289° |
| 2026-05-05 04:54 | 42.09215 | 31.53022 | 39990 ft | 496 kts | 289° |
| 2026-05-05 04:54 | 42.11260 | 31.44163 | 39994 ft | 496 kts | 289° |
| 2026-05-05 04:55 | 42.13291 | 31.35337 | 39998 ft | 496 kts | 289° |
| 2026-05-05 04:55 | 42.15329 | 31.26433 | 40001 ft | 496 kts | 289° |
| 2026-05-05 04:56 | 42.17352 | 31.17553 | 40001 ft | 495 kts | 289° |
| 2026-05-05 04:56 | 42.19362 | 31.08699 | 40004 ft | 495 kts | 289° |
| 2026-05-05 04:57 | 42.21373 | 30.99807 | 40007 ft | 495 kts | 289° |
| 2026-05-05 04:57 | 42.23365 | 30.90962 | 40008 ft | 495 kts | 289° |
| 2026-05-05 04:58 | 42.25364 | 30.82058 | 40014 ft | 495 kts | 288° |
| 2026-05-05 04:58 | 42.27346 | 30.73188 | 40019 ft | 495 kts | 289° |
| 2026-05-05 04:59 | 42.29323 | 30.64303 | 40016 ft | 495 kts | 289° |
| 2026-05-05 04:59 | 42.31287 | 30.55412 | 40017 ft | 493 kts | 288° |
| 2026-05-05 05:00 | 42.33236 | 30.46566 | 40028 ft | 492 kts | 289° |
| 2026-05-05 05:00 | 42.35198 | 30.37654 | 40031 ft | 491 kts | 289° |
| 2026-05-05 05:01 | 42.37128 | 30.28852 | 40026 ft | 491 kts | 289° |
| 2026-05-05 05:01 | 42.39050 | 30.19997 | 40034 ft | 489 kts | 289° |
| 2026-05-05 05:02 | 42.40963 | 30.11164 | 40038 ft | 488 kts | 289° |
| 2026-05-05 05:02 | 42.42877 | 30.02309 | 40039 ft | 488 kts | 289° |
| 2026-05-05 05:03 | 42.44763 | 29.93549 | 40042 ft | 488 kts | 288° |
| 2026-05-05 05:03 | 42.46658 | 29.84685 | 40044 ft | 487 kts | 287° |
| 2026-05-05 05:04 | 42.48190 | 29.75732 | 40044 ft | 488 kts | 284° |
| 2026-05-05 05:04 | 42.49551 | 29.66739 | 40048 ft | 488 kts | 283° |
| 2026-05-05 05:05 | 42.50945 | 29.57756 | 40053 ft | 487 kts | 284° |
| 2026-05-05 05:05 | 42.52374 | 29.48800 | 40053 ft | 487 kts | 284° |
| 2026-05-05 05:06 | 42.53822 | 29.39777 | 40056 ft | 487 kts | 284° |
| 2026-05-05 05:06 | 42.55248 | 29.30839 | 40057 ft | 487 kts | 284° |
| 2026-05-05 05:07 | 42.56670 | 29.21876 | 40060 ft | 486 kts | 284° |
| 2026-05-05 05:07 | 42.58079 | 29.12929 | 40059 ft | 486 kts | 284° |
| 2026-05-05 05:08 | 42.59483 | 29.03967 | 40060 ft | 486 kts | 284° |
| 2026-05-05 05:08 | 42.60888 | 28.94956 | 40061 ft | 486 kts | 284° |
| 2026-05-05 05:09 | 42.62278 | 28.85982 | 40062 ft | 486 kts | 284° |
| 2026-05-05 05:09 | 42.63658 | 28.77032 | 40061 ft | 486 kts | 283° |
| 2026-05-05 05:10 | 42.65035 | 28.68049 | 40069 ft | 486 kts | 283° |
| 2026-05-05 05:10 | 42.66408 | 28.59030 | 40068 ft | 485 kts | 283° |
| 2026-05-05 05:11 | 42.67762 | 28.50061 | 40065 ft | 484 kts | 283° |
| 2026-05-05 05:11 | 42.69116 | 28.41105 | 40068 ft | 484 kts | 283° |
| 2026-05-05 05:12 | 42.70450 | 28.32197 | 40072 ft | 483 kts | 283° |
| 2026-05-05 05:12 | 42.71780 | 28.23252 | 40071 ft | 482 kts | 283° |
| 2026-05-05 05:13 | 42.73099 | 28.14350 | 40071 ft | 480 kts | 283° |
| 2026-05-05 05:13 | 42.74426 | 28.05382 | 40067 ft | 480 kts | 283° |
| 2026-05-05 05:14 | 42.75731 | 27.96507 | 40067 ft | 480 kts | 283° |
| 2026-05-05 05:14 | 42.77027 | 27.87588 | 40059 ft | 479 kts | 282° |
| 2026-05-05 05:15 | 42.78309 | 27.78730 | 40068 ft | 478 kts | 282° |
| 2026-05-05 05:15 | 42.79589 | 27.69863 | 40065 ft | 478 kts | 282° |
| 2026-05-05 05:16 | 42.80868 | 27.60946 | 40067 ft | 478 kts | 282° |
| 2026-05-05 05:16 | 42.82135 | 27.52055 | 40067 ft | 478 kts | 282° |
| 2026-05-05 05:17 | 42.83393 | 27.43162 | 40066 ft | 478 kts | 282° |
| 2026-05-05 05:17 | 42.84637 | 27.34324 | 40069 ft | 478 kts | 282° |
| 2026-05-05 05:18 | 42.85885 | 27.25400 | 40066 ft | 478 kts | 282° |
| 2026-05-05 05:18 | 42.87115 | 27.16522 | 40069 ft | 479 kts | 282° |
| 2026-05-05 05:19 | 42.88351 | 27.07535 | 40070 ft | 479 kts | 282° |
| 2026-05-05 05:19 | 42.89580 | 26.98633 | 40070 ft | 479 kts | 282° |
| 2026-05-05 05:20 | 42.90804 | 26.89708 | 40072 ft | 479 kts | 282° |
| 2026-05-05 05:20 | 42.92014 | 26.80761 | 40075 ft | 480 kts | 282° |
| 2026-05-05 05:21 | 42.93228 | 26.71775 | 40071 ft | 480 kts | 282° |
| 2026-05-05 05:21 | 42.94427 | 26.62842 | 40072 ft | 480 kts | 282° |
| 2026-05-05 05:22 | 42.95622 | 26.53888 | 40064 ft | 480 kts | 282° |
| 2026-05-05 05:22 | 42.96807 | 26.44934 | 40071 ft | 479 kts | 282° |
| 2026-05-05 05:23 | 42.97987 | 26.35969 | 40070 ft | 479 kts | 282° |
| 2026-05-05 05:23 | 42.99155 | 26.27038 | 40067 ft | 479 kts | 282° |
| 2026-05-05 05:24 | 43.00317 | 26.18091 | 40060 ft | 479 kts | 282° |
| 2026-05-05 05:24 | 43.01473 | 26.09133 | 40066 ft | 478 kts | 282° |
| 2026-05-05 05:25 | 43.02620 | 26.00191 | 40067 ft | 478 kts | 282° |
| 2026-05-05 05:25 | 43.03768 | 25.91185 | 40068 ft | 478 kts | 282° |
| 2026-05-05 05:26 | 43.04903 | 25.82218 | 40068 ft | 478 kts | 282° |
| 2026-05-05 05:26 | 43.06023 | 25.73317 | 40082 ft | 478 kts | 282° |
| 2026-05-05 05:27 | 43.07142 | 25.64362 | 40076 ft | 478 kts | 282° |
| 2026-05-05 05:27 | 43.08808 | 25.50916 | 40065 ft | 478 kts | 281° |
| 2026-05-05 05:28 | 43.09911 | 25.41945 | 40072 ft | 478 kts | 281° |
| 2026-05-05 05:28 | 43.11001 | 25.33012 | 40071 ft | 478 kts | 281° |
| 2026-05-05 05:29 | 43.12088 | 25.24044 | 40074 ft | 478 kts | 281° |
| 2026-05-05 05:29 | 43.13170 | 25.15064 | 40070 ft | 478 kts | 281° |
| 2026-05-05 05:30 | 43.14245 | 25.06071 | 40074 ft | 477 kts | 281° |
| 2026-05-05 05:30 | 43.15302 | 24.97176 | 40074 ft | 476 kts | 281° |
| 2026-05-05 05:31 | 43.16364 | 24.88175 | 40070 ft | 476 kts | 281° |
| 2026-05-05 05:31 | 43.17407 | 24.79272 | 40079 ft | 476 kts | 281° |
| 2026-05-05 05:32 | 43.18449 | 24.70313 | 40079 ft | 476 kts | 281° |
| 2026-05-05 05:32 | 43.19485 | 24.61344 | 40080 ft | 476 kts | 281° |
| 2026-05-05 05:33 | 43.20514 | 24.52369 | 40070 ft | 475 kts | 281° |
| 2026-05-05 05:33 | 43.21534 | 24.43413 | 40070 ft | 475 kts | 281° |
| 2026-05-05 05:34 | 43.22545 | 24.34472 | 40072 ft | 475 kts | 281° |
| 2026-05-05 05:34 | 43.23547 | 24.25539 | 40073 ft | 474 kts | 281° |
| 2026-05-05 05:35 | 43.24538 | 24.16649 | 40079 ft | 474 kts | 281° |
| 2026-05-05 05:35 | 43.25528 | 24.07697 | 40072 ft | 474 kts | 281° |
| 2026-05-05 05:36 | 43.26509 | 23.98761 | 40074 ft | 474 kts | 281° |
| 2026-05-05 05:36 | 43.27486 | 23.89798 | 40077 ft | 473 kts | 281° |
| 2026-05-05 05:37 | 43.28288 | 23.82386 | 40074 ft | 473 kts | 281° |
| 2026-05-05 05:37 | 43.29326 | 23.71954 | 40073 ft | 474 kts | 279° |
| 2026-05-05 05:38 | 43.30094 | 23.62990 | 40073 ft | 473 kts | 279° |
| 2026-05-05 05:38 | 43.30737 | 23.55469 | 40075 ft | 472 kts | 279° |
| 2026-05-05 05:39 | 43.31514 | 23.46517 | 40075 ft | 472 kts | 279° |
| 2026-05-05 05:39 | 43.32288 | 23.37637 | 40074 ft | 472 kts | 279° |
| 2026-05-05 05:40 | 43.33065 | 23.28688 | 40078 ft | 471 kts | 279° |
| 2026-05-05 05:40 | 43.33838 | 23.19713 | 40079 ft | 470 kts | 279° |
| 2026-05-05 05:41 | 43.34595 | 23.10816 | 40083 ft | 470 kts | 279° |
| 2026-05-05 05:41 | 43.35343 | 23.01940 | 40084 ft | 470 kts | 279° |
| 2026-05-05 05:42 | 43.36087 | 22.93033 | 40089 ft | 470 kts | 279° |
| 2026-05-05 05:42 | 43.36827 | 22.84102 | 40094 ft | 469 kts | 279° |
| 2026-05-05 05:43 | 43.37878 | 22.75302 | 40092 ft | 465 kts | 288° |
| 2026-05-05 05:43 | 43.39711 | 22.66746 | 40103 ft | 465 kts | 289° |
| 2026-05-05 05:44 | 43.41655 | 22.58300 | 40091 ft | 465 kts | 290° |
| 2026-05-05 05:44 | 43.43621 | 22.49803 | 40100 ft | 465 kts | 290° |
| 2026-05-05 05:45 | 43.45567 | 22.41305 | 40102 ft | 465 kts | 289° |
| 2026-05-05 05:45 | 43.47492 | 22.32828 | 40099 ft | 465 kts | 289° |
| 2026-05-05 05:46 | 43.49414 | 22.24312 | 40099 ft | 465 kts | 289° |
| 2026-05-05 05:46 | 43.51315 | 22.15820 | 40106 ft | 464 kts | 289° |
| 2026-05-05 05:47 | 43.53212 | 22.07367 | 40112 ft | 464 kts | 289° |
| 2026-05-05 05:47 | 43.55118 | 21.98860 | 40114 ft | 464 kts | 289° |
| 2026-05-05 05:48 | 43.57009 | 21.90374 | 40115 ft | 464 kts | 289° |
| 2026-05-05 05:48 | 43.58901 | 21.81835 | 40108 ft | 464 kts | 289° |
| 2026-05-05 05:49 | 43.60773 | 21.73350 | 40097 ft | 464 kts | 289° |
| 2026-05-05 05:49 | 43.62647 | 21.64821 | 40097 ft | 464 kts | 289° |
| 2026-05-05 05:50 | 43.64519 | 21.56271 | 40093 ft | 463 kts | 288° |
| 2026-05-05 05:50 | 43.66359 | 21.47832 | 40094 ft | 462 kts | 288° |
| 2026-05-05 05:51 | 43.68210 | 21.39308 | 40093 ft | 462 kts | 288° |
| 2026-05-05 05:51 | 43.70051 | 21.30797 | 40094 ft | 462 kts | 288° |
| 2026-05-05 05:52 | 43.71883 | 21.22294 | 40088 ft | 460 kts | 288° |
| 2026-05-05 05:52 | 43.73703 | 21.13809 | 40088 ft | 459 kts | 288° |
| 2026-05-05 05:53 | 43.75499 | 21.05405 | 40088 ft | 459 kts | 288° |
| 2026-05-05 05:53 | 43.77311 | 20.96893 | 40088 ft | 459 kts | 288° |
| 2026-05-05 05:54 | 43.79102 | 20.88443 | 40083 ft | 457 kts | 288° |
| 2026-05-05 05:54 | 43.80876 | 20.80036 | 40083 ft | 456 kts | 288° |
| 2026-05-05 05:55 | 43.82657 | 20.71566 | 40085 ft | 456 kts | 288° |
| 2026-05-05 05:55 | 43.84419 | 20.63151 | 40083 ft | 456 kts | 288° |
| 2026-05-05 05:56 | 43.86169 | 20.54759 | 40104 ft | 455 kts | 288° |
| 2026-05-05 05:56 | 43.87921 | 20.46320 | 40099 ft | 455 kts | 288° |
| 2026-05-05 05:57 | 43.89660 | 20.37910 | 40094 ft | 455 kts | 287° |
| 2026-05-05 05:57 | 43.91397 | 20.29478 | 40093 ft | 455 kts | 287° |
| 2026-05-05 05:58 | 43.93133 | 20.21014 | 40084 ft | 454 kts | 287° |
| 2026-05-05 05:58 | 43.94846 | 20.12627 | 40078 ft | 454 kts | 287° |
| 2026-05-05 05:59 | 43.96564 | 20.04177 | 40078 ft | 454 kts | 287° |
| 2026-05-05 05:59 | 43.98270 | 19.95754 | 40078 ft | 454 kts | 287° |
| 2026-05-05 06:00 | 43.99975 | 19.87288 | 40078 ft | 453 kts | 287° |
| 2026-05-05 06:00 | 44.01671 | 19.78821 | 40080 ft | 453 kts | 287° |
| 2026-05-05 06:01 | 44.03355 | 19.70419 | 40078 ft | 454 kts | 287° |
| 2026-05-05 06:01 | 44.05040 | 19.61969 | 40079 ft | 454 kts | 287° |
| 2026-05-05 06:02 | 44.06719 | 19.53508 | 40080 ft | 453 kts | 286° |
| 2026-05-05 06:02 | 44.08389 | 19.45047 | 40083 ft | 453 kts | 286° |
| 2026-05-05 06:03 | 44.10049 | 19.36603 | 40081 ft | 453 kts | 286° |
| 2026-05-05 06:03 | 44.11705 | 19.28144 | 40077 ft | 453 kts | 286° |
| 2026-05-05 06:04 | 44.13356 | 19.19672 | 40079 ft | 453 kts | 285° |
| 2026-05-05 06:04 | 44.15040 | 19.11284 | 40080 ft | 452 kts | 287° |